<?xml version="1.0" encoding="UTF-8" standalone="no" ?>
<gpx xmlns="http://www.topografix.com/GPX/1/1" xmlns:xsi="http://www.w3.org/2001/XMLSchema-instance" xsi:schemaLocation="http://www.topografix.com/GPX/1/1 http://www.topografix.com/GPX/1/1/gpx.xsd" version="1.1" creator="VisuGPX - https://www.visugpx.com">
  <metadata>
    <name>Forêt de Saint-Germain - Croix de Noailles</name>
    <desc><![CDATA[Parcours de 9 km
]]></desc>
  </metadata>
  <trk>
    <name><![CDATA[Croix de Noailles_RE]]></name>
    <trkseg>
      <trkpt lat="48.9401" lon="2.09688">
        <ele>60</ele>
        <time>2024-02-14T08:07:47Z</time>
      </trkpt>
      <trkpt lat="48.94012" lon="2.09687">
        <ele>59.86</ele>
        <time>2024-02-14T08:08:29Z</time>
      </trkpt>
      <trkpt lat="48.94018" lon="2.09685">
        <ele>59.71</ele>
        <time>2024-02-14T08:08:42Z</time>
      </trkpt>
      <trkpt lat="48.94031" lon="2.09689">
        <ele>59.13</ele>
        <time>2024-02-14T08:08:55Z</time>
      </trkpt>
      <trkpt lat="48.94045" lon="2.0969">
        <ele>58.64</ele>
        <time>2024-02-14T08:17:39Z</time>
      </trkpt>
      <trkpt lat="48.94053" lon="2.09693">
        <ele>57.57</ele>
        <time>2024-02-14T08:17:51Z</time>
      </trkpt>
      <trkpt lat="48.9407" lon="2.09697">
        <ele>57.71</ele>
        <time>2024-02-14T08:18:01Z</time>
      </trkpt>
      <trkpt lat="48.94078" lon="2.09702">
        <ele>57.21</ele>
        <time>2024-02-14T08:18:08Z</time>
      </trkpt>
      <trkpt lat="48.94091" lon="2.09703">
        <ele>56.9</ele>
        <time>2024-02-14T08:18:20Z</time>
      </trkpt>
      <trkpt lat="48.94111" lon="2.09706">
        <ele>56.97</ele>
        <time>2024-02-14T08:18:33Z</time>
      </trkpt>
      <trkpt lat="48.94126" lon="2.09713">
        <ele>56.8</ele>
        <time>2024-02-14T08:18:44Z</time>
      </trkpt>
      <trkpt lat="48.94132" lon="2.09715">
        <ele>56.39</ele>
        <time>2024-02-14T08:18:47Z</time>
      </trkpt>
      <trkpt lat="48.94133" lon="2.09715">
        <ele>56.81</ele>
        <time>2024-02-14T08:18:48Z</time>
      </trkpt>
      <trkpt lat="48.94147" lon="2.09718">
        <ele>56.46</ele>
        <time>2024-02-14T08:19:00Z</time>
      </trkpt>
      <trkpt lat="48.9415" lon="2.0972">
        <ele>56.11</ele>
        <time>2024-02-14T08:19:02Z</time>
      </trkpt>
      <trkpt lat="48.94166" lon="2.09726">
        <ele>56.13</ele>
        <time>2024-02-14T08:19:14Z</time>
      </trkpt>
      <trkpt lat="48.94186" lon="2.0973">
        <ele>56.19</ele>
        <time>2024-02-14T08:19:29Z</time>
      </trkpt>
      <trkpt lat="48.94194" lon="2.09733">
        <ele>56.41</ele>
        <time>2024-02-14T08:19:35Z</time>
      </trkpt>
      <trkpt lat="48.94196" lon="2.09733">
        <ele>56.16</ele>
        <time>2024-02-14T08:19:36Z</time>
      </trkpt>
      <trkpt lat="48.94197" lon="2.09734">
        <ele>56.22</ele>
        <time>2024-02-14T08:19:37Z</time>
      </trkpt>
      <trkpt lat="48.94199" lon="2.09734">
        <ele>56.05</ele>
        <time>2024-02-14T08:19:38Z</time>
      </trkpt>
      <trkpt lat="48.94209" lon="2.0974">
        <ele>56.2</ele>
        <time>2024-02-14T08:19:47Z</time>
      </trkpt>
      <trkpt lat="48.94212" lon="2.0974">
        <ele>56.09</ele>
        <time>2024-02-14T08:19:49Z</time>
      </trkpt>
      <trkpt lat="48.94225" lon="2.09745">
        <ele>56.34</ele>
        <time>2024-02-14T08:20:00Z</time>
      </trkpt>
      <trkpt lat="48.94247" lon="2.09752">
        <ele>55.26</ele>
        <time>2024-02-14T08:20:14Z</time>
      </trkpt>
      <trkpt lat="48.94262" lon="2.09756">
        <ele>55.06</ele>
        <time>2024-02-14T08:20:25Z</time>
      </trkpt>
      <trkpt lat="48.94263" lon="2.09757">
        <ele>55.31</ele>
        <time>2024-02-14T08:20:26Z</time>
      </trkpt>
      <trkpt lat="48.94265" lon="2.09757">
        <ele>55.09</ele>
        <time>2024-02-14T08:20:27Z</time>
      </trkpt>
      <trkpt lat="48.94266" lon="2.09757">
        <ele>55.2</ele>
        <time>2024-02-14T08:20:28Z</time>
      </trkpt>
      <trkpt lat="48.94268" lon="2.09758">
        <ele>54.62</ele>
        <time>2024-02-14T08:20:29Z</time>
      </trkpt>
      <trkpt lat="48.94269" lon="2.09758">
        <ele>55.39</ele>
        <time>2024-02-14T08:20:30Z</time>
      </trkpt>
      <trkpt lat="48.9428" lon="2.0976">
        <ele>54.29</ele>
        <time>2024-02-14T08:20:40Z</time>
      </trkpt>
      <trkpt lat="48.94284" lon="2.09761">
        <ele>54.18</ele>
        <time>2024-02-14T08:20:43Z</time>
      </trkpt>
      <trkpt lat="48.94298" lon="2.0977">
        <ele>54.1</ele>
        <time>2024-02-14T08:20:55Z</time>
      </trkpt>
      <trkpt lat="48.94317" lon="2.09775">
        <ele>53.56</ele>
        <time>2024-02-14T08:21:09Z</time>
      </trkpt>
      <trkpt lat="48.94337" lon="2.09783">
        <ele>53.38</ele>
        <time>2024-02-14T08:21:24Z</time>
      </trkpt>
      <trkpt lat="48.94349" lon="2.09789">
        <ele>52.55</ele>
        <time>2024-02-14T08:21:34Z</time>
      </trkpt>
      <trkpt lat="48.94354" lon="2.0979">
        <ele>52.96</ele>
        <time>2024-02-14T08:21:37Z</time>
      </trkpt>
      <trkpt lat="48.94359" lon="2.09793">
        <ele>52.92</ele>
        <time>2024-02-14T08:21:41Z</time>
      </trkpt>
      <trkpt lat="48.94372" lon="2.09797">
        <ele>53.12</ele>
        <time>2024-02-14T08:21:50Z</time>
      </trkpt>
      <trkpt lat="48.94386" lon="2.09803">
        <ele>52.85</ele>
        <time>2024-02-14T08:22:00Z</time>
      </trkpt>
      <trkpt lat="48.94402" lon="2.09805">
        <ele>52.49</ele>
        <time>2024-02-14T08:22:11Z</time>
      </trkpt>
      <trkpt lat="48.94418" lon="2.09811">
        <ele>51.73</ele>
        <time>2024-02-14T08:22:23Z</time>
      </trkpt>
      <trkpt lat="48.94425" lon="2.09811">
        <ele>51.91</ele>
        <time>2024-02-14T08:22:27Z</time>
      </trkpt>
      <trkpt lat="48.94426" lon="2.09812">
        <ele>52.09</ele>
        <time>2024-02-14T08:22:28Z</time>
      </trkpt>
      <trkpt lat="48.94428" lon="2.09812">
        <ele>51.76</ele>
        <time>2024-02-14T08:22:29Z</time>
      </trkpt>
      <trkpt lat="48.94429" lon="2.09813">
        <ele>51.58</ele>
        <time>2024-02-14T08:22:30Z</time>
      </trkpt>
      <trkpt lat="48.9443" lon="2.09813">
        <ele>51.73</ele>
        <time>2024-02-14T08:22:31Z</time>
      </trkpt>
      <trkpt lat="48.94432" lon="2.09814">
        <ele>51.66</ele>
        <time>2024-02-14T08:22:32Z</time>
      </trkpt>
      <trkpt lat="48.94433" lon="2.09814">
        <ele>51.57</ele>
        <time>2024-02-14T08:22:33Z</time>
      </trkpt>
      <trkpt lat="48.94434" lon="2.09815">
        <ele>51.39</ele>
        <time>2024-02-14T08:22:34Z</time>
      </trkpt>
      <trkpt lat="48.94436" lon="2.09816">
        <ele>51.93</ele>
        <time>2024-02-14T08:22:35Z</time>
      </trkpt>
      <trkpt lat="48.94437" lon="2.09816">
        <ele>51.31</ele>
        <time>2024-02-14T08:22:36Z</time>
      </trkpt>
      <trkpt lat="48.94438" lon="2.09816">
        <ele>51.43</ele>
        <time>2024-02-14T08:22:37Z</time>
      </trkpt>
      <trkpt lat="48.94449" lon="2.09819">
        <ele>51.3</ele>
        <time>2024-02-14T08:22:44Z</time>
      </trkpt>
      <trkpt lat="48.9445" lon="2.0982">
        <ele>51.34</ele>
        <time>2024-02-14T08:22:45Z</time>
      </trkpt>
      <trkpt lat="48.94452" lon="2.0982">
        <ele>51.2</ele>
        <time>2024-02-14T08:22:46Z</time>
      </trkpt>
      <trkpt lat="48.94463" lon="2.09823">
        <ele>51.32</ele>
        <time>2024-02-14T08:22:53Z</time>
      </trkpt>
      <trkpt lat="48.94464" lon="2.09823">
        <ele>50.81</ele>
        <time>2024-02-14T08:22:54Z</time>
      </trkpt>
      <trkpt lat="48.94466" lon="2.09824">
        <ele>51.19</ele>
        <time>2024-02-14T08:22:55Z</time>
      </trkpt>
      <trkpt lat="48.94467" lon="2.09824">
        <ele>50.79</ele>
        <time>2024-02-14T08:22:56Z</time>
      </trkpt>
      <trkpt lat="48.94468" lon="2.09825">
        <ele>51.41</ele>
        <time>2024-02-14T08:22:57Z</time>
      </trkpt>
      <trkpt lat="48.94474" lon="2.09828">
        <ele>50.92</ele>
        <time>2024-02-14T08:23:01Z</time>
      </trkpt>
      <trkpt lat="48.94477" lon="2.0983">
        <ele>51.53</ele>
        <time>2024-02-14T08:23:04Z</time>
      </trkpt>
      <trkpt lat="48.94479" lon="2.0983">
        <ele>51.29</ele>
        <time>2024-02-14T08:23:05Z</time>
      </trkpt>
      <trkpt lat="48.94481" lon="2.09831">
        <ele>51.51</ele>
        <time>2024-02-14T08:23:06Z</time>
      </trkpt>
      <trkpt lat="48.94486" lon="2.09834">
        <ele>51.3</ele>
        <time>2024-02-14T08:23:11Z</time>
      </trkpt>
      <trkpt lat="48.94499" lon="2.09839">
        <ele>51.12</ele>
        <time>2024-02-14T08:23:21Z</time>
      </trkpt>
      <trkpt lat="48.94511" lon="2.09842">
        <ele>50.98</ele>
        <time>2024-02-14T08:23:31Z</time>
      </trkpt>
      <trkpt lat="48.9453" lon="2.09851">
        <ele>50.56</ele>
        <time>2024-02-14T08:23:48Z</time>
      </trkpt>
      <trkpt lat="48.9455" lon="2.0986">
        <ele>50.16</ele>
        <time>2024-02-14T08:24:01Z</time>
      </trkpt>
      <trkpt lat="48.9455" lon="2.09862">
        <ele>50.33</ele>
        <time>2024-02-14T08:24:02Z</time>
      </trkpt>
      <trkpt lat="48.9455" lon="2.09864">
        <ele>50.04</ele>
        <time>2024-02-14T08:24:03Z</time>
      </trkpt>
      <trkpt lat="48.9455" lon="2.09865">
        <ele>50.09</ele>
        <time>2024-02-14T08:24:04Z</time>
      </trkpt>
      <trkpt lat="48.9455" lon="2.09867">
        <ele>50.5</ele>
        <time>2024-02-14T08:24:05Z</time>
      </trkpt>
      <trkpt lat="48.9455" lon="2.09869">
        <ele>50.44</ele>
        <time>2024-02-14T08:24:06Z</time>
      </trkpt>
      <trkpt lat="48.9455" lon="2.0987">
        <ele>50.1</ele>
        <time>2024-02-14T08:24:07Z</time>
      </trkpt>
      <trkpt lat="48.9455" lon="2.09872">
        <ele>50.12</ele>
        <time>2024-02-14T08:24:08Z</time>
      </trkpt>
      <trkpt lat="48.9455" lon="2.09873">
        <ele>50.02</ele>
        <time>2024-02-14T08:24:09Z</time>
      </trkpt>
      <trkpt lat="48.9455" lon="2.09875">
        <ele>49.98</ele>
        <time>2024-02-14T08:24:10Z</time>
      </trkpt>
      <trkpt lat="48.9455" lon="2.09877">
        <ele>50.23</ele>
        <time>2024-02-14T08:24:11Z</time>
      </trkpt>
      <trkpt lat="48.9455" lon="2.09887">
        <ele>50.07</ele>
        <time>2024-02-14T08:24:17Z</time>
      </trkpt>
      <trkpt lat="48.94548" lon="2.09901">
        <ele>50.27</ele>
        <time>2024-02-14T08:24:25Z</time>
      </trkpt>
      <trkpt lat="48.94547" lon="2.09903">
        <ele>50.86</ele>
        <time>2024-02-14T08:24:26Z</time>
      </trkpt>
      <trkpt lat="48.94548" lon="2.09905">
        <ele>50.85</ele>
        <time>2024-02-14T08:24:27Z</time>
      </trkpt>
      <trkpt lat="48.94546" lon="2.0992">
        <ele>50.8</ele>
        <time>2024-02-14T08:24:34Z</time>
      </trkpt>
      <trkpt lat="48.94542" lon="2.09939">
        <ele>50.42</ele>
        <time>2024-02-14T08:24:44Z</time>
      </trkpt>
      <trkpt lat="48.94537" lon="2.09963">
        <ele>50.55</ele>
        <time>2024-02-14T08:24:56Z</time>
      </trkpt>
      <trkpt lat="48.94534" lon="2.0998">
        <ele>51.28</ele>
        <time>2024-02-14T08:25:06Z</time>
      </trkpt>
      <trkpt lat="48.94527" lon="2.10011">
        <ele>50.75</ele>
        <time>2024-02-14T08:25:22Z</time>
      </trkpt>
      <trkpt lat="48.94525" lon="2.10028">
        <ele>50.7</ele>
        <time>2024-02-14T08:25:35Z</time>
      </trkpt>
      <trkpt lat="48.94521" lon="2.1005">
        <ele>50.84</ele>
        <time>2024-02-14T08:25:45Z</time>
      </trkpt>
      <trkpt lat="48.94519" lon="2.10071">
        <ele>51.08</ele>
        <time>2024-02-14T08:25:56Z</time>
      </trkpt>
      <trkpt lat="48.94518" lon="2.10094">
        <ele>50.5</ele>
        <time>2024-02-14T08:26:07Z</time>
      </trkpt>
      <trkpt lat="48.94515" lon="2.10108">
        <ele>50.71</ele>
        <time>2024-02-14T08:26:14Z</time>
      </trkpt>
      <trkpt lat="48.94512" lon="2.10121">
        <ele>51.37</ele>
        <time>2024-02-14T08:26:20Z</time>
      </trkpt>
      <trkpt lat="48.94512" lon="2.10126">
        <ele>50.79</ele>
        <time>2024-02-14T08:26:22Z</time>
      </trkpt>
      <trkpt lat="48.94509" lon="2.10137">
        <ele>50.58</ele>
        <time>2024-02-14T08:26:27Z</time>
      </trkpt>
      <trkpt lat="48.94504" lon="2.10157">
        <ele>50.82</ele>
        <time>2024-02-14T08:26:37Z</time>
      </trkpt>
      <trkpt lat="48.94502" lon="2.10166">
        <ele>50.95</ele>
        <time>2024-02-14T08:26:42Z</time>
      </trkpt>
      <trkpt lat="48.94498" lon="2.10186">
        <ele>50.35</ele>
        <time>2024-02-14T08:26:51Z</time>
      </trkpt>
      <trkpt lat="48.94498" lon="2.10187">
        <ele>50.23</ele>
        <time>2024-02-14T08:26:52Z</time>
      </trkpt>
      <trkpt lat="48.94495" lon="2.10209">
        <ele>50.51</ele>
        <time>2024-02-14T08:27:03Z</time>
      </trkpt>
      <trkpt lat="48.94491" lon="2.10229">
        <ele>50.23</ele>
        <time>2024-02-14T08:27:13Z</time>
      </trkpt>
      <trkpt lat="48.94491" lon="2.10232">
        <ele>50.21</ele>
        <time>2024-02-14T08:27:14Z</time>
      </trkpt>
      <trkpt lat="48.94489" lon="2.10245">
        <ele>49.84</ele>
        <time>2024-02-14T08:27:21Z</time>
      </trkpt>
      <trkpt lat="48.94489" lon="2.10247">
        <ele>50.43</ele>
        <time>2024-02-14T08:27:22Z</time>
      </trkpt>
      <trkpt lat="48.94489" lon="2.10249">
        <ele>49.97</ele>
        <time>2024-02-14T08:27:23Z</time>
      </trkpt>
      <trkpt lat="48.94485" lon="2.10266">
        <ele>50.24</ele>
        <time>2024-02-14T08:27:32Z</time>
      </trkpt>
      <trkpt lat="48.94484" lon="2.10271">
        <ele>50.33</ele>
        <time>2024-02-14T08:27:35Z</time>
      </trkpt>
      <trkpt lat="48.94483" lon="2.10274">
        <ele>49.95</ele>
        <time>2024-02-14T08:27:37Z</time>
      </trkpt>
      <trkpt lat="48.94482" lon="2.10276">
        <ele>49.9</ele>
        <time>2024-02-14T08:27:38Z</time>
      </trkpt>
      <trkpt lat="48.94481" lon="2.1028">
        <ele>50.1</ele>
        <time>2024-02-14T08:27:40Z</time>
      </trkpt>
      <trkpt lat="48.94477" lon="2.10304">
        <ele>49.57</ele>
        <time>2024-02-14T08:27:51Z</time>
      </trkpt>
      <trkpt lat="48.94477" lon="2.10326">
        <ele>49.35</ele>
        <time>2024-02-14T08:28:00Z</time>
      </trkpt>
      <trkpt lat="48.94475" lon="2.10344">
        <ele>48.84</ele>
        <time>2024-02-14T08:28:09Z</time>
      </trkpt>
      <trkpt lat="48.94474" lon="2.10346">
        <ele>48.92</ele>
        <time>2024-02-14T08:28:10Z</time>
      </trkpt>
      <trkpt lat="48.94473" lon="2.10349">
        <ele>48.64</ele>
        <time>2024-02-14T08:28:12Z</time>
      </trkpt>
      <trkpt lat="48.9447" lon="2.10371">
        <ele>48.65</ele>
        <time>2024-02-14T08:28:23Z</time>
      </trkpt>
      <trkpt lat="48.94469" lon="2.10385">
        <ele>48.32</ele>
        <time>2024-02-14T08:28:30Z</time>
      </trkpt>
      <trkpt lat="48.94468" lon="2.10388">
        <ele>48.54</ele>
        <time>2024-02-14T08:28:31Z</time>
      </trkpt>
      <trkpt lat="48.94467" lon="2.10396">
        <ele>48.82</ele>
        <time>2024-02-14T08:28:35Z</time>
      </trkpt>
      <trkpt lat="48.94467" lon="2.10398">
        <ele>48.72</ele>
        <time>2024-02-14T08:28:36Z</time>
      </trkpt>
      <trkpt lat="48.94465" lon="2.10413">
        <ele>48.23</ele>
        <time>2024-02-14T08:28:45Z</time>
      </trkpt>
      <trkpt lat="48.94474" lon="2.10426">
        <ele>48.06</ele>
        <time>2024-02-14T08:28:56Z</time>
      </trkpt>
      <trkpt lat="48.94491" lon="2.10419">
        <ele>48.18</ele>
        <time>2024-02-14T08:29:12Z</time>
      </trkpt>
      <trkpt lat="48.94509" lon="2.10406">
        <ele>49.08</ele>
        <time>2024-02-14T08:29:26Z</time>
      </trkpt>
      <trkpt lat="48.94523" lon="2.10396">
        <ele>48.73</ele>
        <time>2024-02-14T08:29:37Z</time>
      </trkpt>
      <trkpt lat="48.94534" lon="2.10388">
        <ele>48.74</ele>
        <time>2024-02-14T08:29:46Z</time>
      </trkpt>
      <trkpt lat="48.9454" lon="2.10381">
        <ele>48.39</ele>
        <time>2024-02-14T08:29:55Z</time>
      </trkpt>
      <trkpt lat="48.94554" lon="2.10365">
        <ele>47.64</ele>
        <time>2024-02-14T08:30:10Z</time>
      </trkpt>
      <trkpt lat="48.94568" lon="2.10353">
        <ele>47.52</ele>
        <time>2024-02-14T08:30:24Z</time>
      </trkpt>
      <trkpt lat="48.94576" lon="2.10347">
        <ele>47.31</ele>
        <time>2024-02-14T08:30:38Z</time>
      </trkpt>
      <trkpt lat="48.94593" lon="2.10331">
        <ele>46.97</ele>
        <time>2024-02-14T08:30:53Z</time>
      </trkpt>
      <trkpt lat="48.94595" lon="2.10328">
        <ele>46.78</ele>
        <time>2024-02-14T08:30:55Z</time>
      </trkpt>
      <trkpt lat="48.94611" lon="2.10314">
        <ele>47.19</ele>
        <time>2024-02-14T08:31:07Z</time>
      </trkpt>
      <trkpt lat="48.9463" lon="2.10304">
        <ele>46.49</ele>
        <time>2024-02-14T08:31:22Z</time>
      </trkpt>
      <trkpt lat="48.94635" lon="2.10299">
        <ele>46.21</ele>
        <time>2024-02-14T08:31:25Z</time>
      </trkpt>
      <trkpt lat="48.94653" lon="2.10282">
        <ele>46.47</ele>
        <time>2024-02-14T08:31:36Z</time>
      </trkpt>
      <trkpt lat="48.94655" lon="2.1028">
        <ele>46.5</ele>
        <time>2024-02-14T08:31:39Z</time>
      </trkpt>
      <trkpt lat="48.94669" lon="2.10265">
        <ele>46.09</ele>
        <time>2024-02-14T08:31:54Z</time>
      </trkpt>
      <trkpt lat="48.94675" lon="2.10258">
        <ele>45.45</ele>
        <time>2024-02-14T08:32:04Z</time>
      </trkpt>
      <trkpt lat="48.94689" lon="2.10245">
        <ele>45.78</ele>
        <time>2024-02-14T08:32:17Z</time>
      </trkpt>
      <trkpt lat="48.94709" lon="2.10229">
        <ele>45.06</ele>
        <time>2024-02-14T08:32:32Z</time>
      </trkpt>
      <trkpt lat="48.94733" lon="2.10216">
        <ele>44.84</ele>
        <time>2024-02-14T08:32:46Z</time>
      </trkpt>
      <trkpt lat="48.94754" lon="2.10197">
        <ele>44.9</ele>
        <time>2024-02-14T08:33:01Z</time>
      </trkpt>
      <trkpt lat="48.94774" lon="2.10182">
        <ele>45.33</ele>
        <time>2024-02-14T08:33:15Z</time>
      </trkpt>
      <trkpt lat="48.9479" lon="2.10166">
        <ele>44.11</ele>
        <time>2024-02-14T08:33:30Z</time>
      </trkpt>
      <trkpt lat="48.94818" lon="2.10146">
        <ele>43.76</ele>
        <time>2024-02-14T08:33:45Z</time>
      </trkpt>
      <trkpt lat="48.94837" lon="2.10128">
        <ele>43.59</ele>
        <time>2024-02-14T08:33:59Z</time>
      </trkpt>
      <trkpt lat="48.94848" lon="2.10116">
        <ele>43.65</ele>
        <time>2024-02-14T08:34:13Z</time>
      </trkpt>
      <trkpt lat="48.94869" lon="2.10103">
        <ele>43.21</ele>
        <time>2024-02-14T08:34:27Z</time>
      </trkpt>
      <trkpt lat="48.94892" lon="2.10091">
        <ele>42.74</ele>
        <time>2024-02-14T08:34:41Z</time>
      </trkpt>
      <trkpt lat="48.94912" lon="2.10069">
        <ele>42.37</ele>
        <time>2024-02-14T08:34:57Z</time>
      </trkpt>
      <trkpt lat="48.94924" lon="2.10056">
        <ele>42.37</ele>
        <time>2024-02-14T08:35:08Z</time>
      </trkpt>
      <trkpt lat="48.9494" lon="2.10047">
        <ele>41.72</ele>
        <time>2024-02-14T08:35:22Z</time>
      </trkpt>
      <trkpt lat="48.94954" lon="2.10033">
        <ele>42.32</ele>
        <time>2024-02-14T08:35:36Z</time>
      </trkpt>
      <trkpt lat="48.94982" lon="2.10013">
        <ele>41.56</ele>
        <time>2024-02-14T08:35:51Z</time>
      </trkpt>
      <trkpt lat="48.94995" lon="2.10003">
        <ele>41.11</ele>
        <time>2024-02-14T08:36:02Z</time>
      </trkpt>
      <trkpt lat="48.94999" lon="2.10001">
        <ele>41.45</ele>
        <time>2024-02-14T08:36:18Z</time>
      </trkpt>
      <trkpt lat="48.94999" lon="2.1">
        <ele>41.5</ele>
        <time>2024-02-14T08:36:34Z</time>
      </trkpt>
      <trkpt lat="48.95" lon="2.10002">
        <ele>40.73</ele>
        <time>2024-02-14T08:36:46Z</time>
      </trkpt>
      <trkpt lat="48.94999" lon="2.10002">
        <ele>41.58</ele>
        <time>2024-02-14T08:37:06Z</time>
      </trkpt>
      <trkpt lat="48.94998" lon="2.10004">
        <ele>41.23</ele>
        <time>2024-02-14T08:37:22Z</time>
      </trkpt>
      <trkpt lat="48.94999" lon="2.10005">
        <ele>41.41</ele>
        <time>2024-02-14T08:37:37Z</time>
      </trkpt>
      <trkpt lat="48.94998" lon="2.10004">
        <ele>40.95</ele>
        <time>2024-02-14T08:37:54Z</time>
      </trkpt>
      <trkpt lat="48.94999" lon="2.10004">
        <ele>41.47</ele>
        <time>2024-02-14T08:38:07Z</time>
      </trkpt>
      <trkpt lat="48.95001" lon="2.10007">
        <ele>41.35</ele>
        <time>2024-02-14T08:38:23Z</time>
      </trkpt>
      <trkpt lat="48.95002" lon="2.10007">
        <ele>41.5</ele>
        <time>2024-02-14T08:38:38Z</time>
      </trkpt>
      <trkpt lat="48.95005" lon="2.10012">
        <ele>41.18</ele>
        <time>2024-02-14T08:38:57Z</time>
      </trkpt>
      <trkpt lat="48.95017" lon="2.1002">
        <ele>41.52</ele>
        <time>2024-02-14T08:39:12Z</time>
      </trkpt>
      <trkpt lat="48.95021" lon="2.10022">
        <ele>41.92</ele>
        <time>2024-02-14T08:39:16Z</time>
      </trkpt>
      <trkpt lat="48.9503" lon="2.10029">
        <ele>41.58</ele>
        <time>2024-02-14T08:39:25Z</time>
      </trkpt>
      <trkpt lat="48.95032" lon="2.1003">
        <ele>41.6</ele>
        <time>2024-02-14T08:39:27Z</time>
      </trkpt>
      <trkpt lat="48.95036" lon="2.10033">
        <ele>41.46</ele>
        <time>2024-02-14T08:39:30Z</time>
      </trkpt>
      <trkpt lat="48.95039" lon="2.10035">
        <ele>41.45</ele>
        <time>2024-02-14T08:39:33Z</time>
      </trkpt>
      <trkpt lat="48.95044" lon="2.10039">
        <ele>41.54</ele>
        <time>2024-02-14T08:39:37Z</time>
      </trkpt>
      <trkpt lat="48.95047" lon="2.10042">
        <ele>41.05</ele>
        <time>2024-02-14T08:39:40Z</time>
      </trkpt>
      <trkpt lat="48.95062" lon="2.10053">
        <ele>39.84</ele>
        <time>2024-02-14T08:39:52Z</time>
      </trkpt>
      <trkpt lat="48.95074" lon="2.10063">
        <ele>39.17</ele>
        <time>2024-02-14T08:40:01Z</time>
      </trkpt>
      <trkpt lat="48.95078" lon="2.10067">
        <ele>39.43</ele>
        <time>2024-02-14T08:40:04Z</time>
      </trkpt>
      <trkpt lat="48.95082" lon="2.10069">
        <ele>38.82</ele>
        <time>2024-02-14T08:40:07Z</time>
      </trkpt>
      <trkpt lat="48.95084" lon="2.10071">
        <ele>38.65</ele>
        <time>2024-02-14T08:40:08Z</time>
      </trkpt>
      <trkpt lat="48.95093" lon="2.10075">
        <ele>38.15</ele>
        <time>2024-02-14T08:40:13Z</time>
      </trkpt>
      <trkpt lat="48.95095" lon="2.10075">
        <ele>38.56</ele>
        <time>2024-02-14T08:40:14Z</time>
      </trkpt>
      <trkpt lat="48.95106" lon="2.10086">
        <ele>37.69</ele>
        <time>2024-02-14T08:40:22Z</time>
      </trkpt>
      <trkpt lat="48.95122" lon="2.10102">
        <ele>36.64</ele>
        <time>2024-02-14T08:40:36Z</time>
      </trkpt>
      <trkpt lat="48.95125" lon="2.10107">
        <ele>36.52</ele>
        <time>2024-02-14T08:40:39Z</time>
      </trkpt>
      <trkpt lat="48.95129" lon="2.10109">
        <ele>36.58</ele>
        <time>2024-02-14T08:40:42Z</time>
      </trkpt>
      <trkpt lat="48.95142" lon="2.10116">
        <ele>35.87</ele>
        <time>2024-02-14T08:40:53Z</time>
      </trkpt>
      <trkpt lat="48.95144" lon="2.10117">
        <ele>36.04</ele>
        <time>2024-02-14T08:40:54Z</time>
      </trkpt>
      <trkpt lat="48.95153" lon="2.10128">
        <ele>36.17</ele>
        <time>2024-02-14T08:41:06Z</time>
      </trkpt>
      <trkpt lat="48.95153" lon="2.10136">
        <ele>35.61</ele>
        <time>2024-02-14T08:41:12Z</time>
      </trkpt>
      <trkpt lat="48.95153" lon="2.10138">
        <ele>35.44</ele>
        <time>2024-02-14T08:41:13Z</time>
      </trkpt>
      <trkpt lat="48.95152" lon="2.1014">
        <ele>35.14</ele>
        <time>2024-02-14T08:41:14Z</time>
      </trkpt>
      <trkpt lat="48.95152" lon="2.10156">
        <ele>35.25</ele>
        <time>2024-02-14T08:41:24Z</time>
      </trkpt>
      <trkpt lat="48.9515" lon="2.10178">
        <ele>35.25</ele>
        <time>2024-02-14T08:41:34Z</time>
      </trkpt>
      <trkpt lat="48.9515" lon="2.10179">
        <ele>35.92</ele>
        <time>2024-02-14T08:41:35Z</time>
      </trkpt>
      <trkpt lat="48.95149" lon="2.10203">
        <ele>34.7</ele>
        <time>2024-02-14T08:41:46Z</time>
      </trkpt>
      <trkpt lat="48.95147" lon="2.1023">
        <ele>35.14</ele>
        <time>2024-02-14T08:41:57Z</time>
      </trkpt>
      <trkpt lat="48.95147" lon="2.10249">
        <ele>34.93</ele>
        <time>2024-02-14T08:42:07Z</time>
      </trkpt>
      <trkpt lat="48.95145" lon="2.10273">
        <ele>34.26</ele>
        <time>2024-02-14T08:42:17Z</time>
      </trkpt>
      <trkpt lat="48.9514" lon="2.10297">
        <ele>34.51</ele>
        <time>2024-02-14T08:42:29Z</time>
      </trkpt>
      <trkpt lat="48.95138" lon="2.10302">
        <ele>34.76</ele>
        <time>2024-02-14T08:42:31Z</time>
      </trkpt>
      <trkpt lat="48.95137" lon="2.10305">
        <ele>35.22</ele>
        <time>2024-02-14T08:42:33Z</time>
      </trkpt>
      <trkpt lat="48.95136" lon="2.10306">
        <ele>35.02</ele>
        <time>2024-02-14T08:42:34Z</time>
      </trkpt>
      <trkpt lat="48.95136" lon="2.10308">
        <ele>34.86</ele>
        <time>2024-02-14T08:42:35Z</time>
      </trkpt>
      <trkpt lat="48.95135" lon="2.10309">
        <ele>35.4</ele>
        <time>2024-02-14T08:42:36Z</time>
      </trkpt>
      <trkpt lat="48.95135" lon="2.10311">
        <ele>34.79</ele>
        <time>2024-02-14T08:42:37Z</time>
      </trkpt>
      <trkpt lat="48.95135" lon="2.10329">
        <ele>34.95</ele>
        <time>2024-02-14T08:42:45Z</time>
      </trkpt>
      <trkpt lat="48.95135" lon="2.10331">
        <ele>34.76</ele>
        <time>2024-02-14T08:42:46Z</time>
      </trkpt>
      <trkpt lat="48.95134" lon="2.10333">
        <ele>35.17</ele>
        <time>2024-02-14T08:42:47Z</time>
      </trkpt>
      <trkpt lat="48.95135" lon="2.10336">
        <ele>35.03</ele>
        <time>2024-02-14T08:42:48Z</time>
      </trkpt>
      <trkpt lat="48.95135" lon="2.10339">
        <ele>34.75</ele>
        <time>2024-02-14T08:42:49Z</time>
      </trkpt>
      <trkpt lat="48.95135" lon="2.10341">
        <ele>34.91</ele>
        <time>2024-02-14T08:42:50Z</time>
      </trkpt>
      <trkpt lat="48.95135" lon="2.10344">
        <ele>35.27</ele>
        <time>2024-02-14T08:42:51Z</time>
      </trkpt>
      <trkpt lat="48.95136" lon="2.10347">
        <ele>35.2</ele>
        <time>2024-02-14T08:42:52Z</time>
      </trkpt>
      <trkpt lat="48.95136" lon="2.10349">
        <ele>35.13</ele>
        <time>2024-02-14T08:42:53Z</time>
      </trkpt>
      <trkpt lat="48.95136" lon="2.10352">
        <ele>35.16</ele>
        <time>2024-02-14T08:42:54Z</time>
      </trkpt>
      <trkpt lat="48.95142" lon="2.10371">
        <ele>34.73</ele>
        <time>2024-02-14T08:43:04Z</time>
      </trkpt>
      <trkpt lat="48.95147" lon="2.10379">
        <ele>35.4</ele>
        <time>2024-02-14T08:43:11Z</time>
      </trkpt>
      <trkpt lat="48.95149" lon="2.10396">
        <ele>35.04</ele>
        <time>2024-02-14T08:43:20Z</time>
      </trkpt>
      <trkpt lat="48.95155" lon="2.10421">
        <ele>34.82</ele>
        <time>2024-02-14T08:43:36Z</time>
      </trkpt>
      <trkpt lat="48.95162" lon="2.10444">
        <ele>34.6</ele>
        <time>2024-02-14T08:43:48Z</time>
      </trkpt>
      <trkpt lat="48.95162" lon="2.10465">
        <ele>34.72</ele>
        <time>2024-02-14T08:43:58Z</time>
      </trkpt>
      <trkpt lat="48.95164" lon="2.10491">
        <ele>35.2</ele>
        <time>2024-02-14T08:44:11Z</time>
      </trkpt>
      <trkpt lat="48.95166" lon="2.10512">
        <ele>34.53</ele>
        <time>2024-02-14T08:44:24Z</time>
      </trkpt>
      <trkpt lat="48.95173" lon="2.10533">
        <ele>34.15</ele>
        <time>2024-02-14T08:44:33Z</time>
      </trkpt>
      <trkpt lat="48.95174" lon="2.10536">
        <ele>34.19</ele>
        <time>2024-02-14T08:44:34Z</time>
      </trkpt>
      <trkpt lat="48.95174" lon="2.10538">
        <ele>34.49</ele>
        <time>2024-02-14T08:44:35Z</time>
      </trkpt>
      <trkpt lat="48.95174" lon="2.10542">
        <ele>34.51</ele>
        <time>2024-02-14T08:44:36Z</time>
      </trkpt>
      <trkpt lat="48.95178" lon="2.10569">
        <ele>34.21</ele>
        <time>2024-02-14T08:44:48Z</time>
      </trkpt>
      <trkpt lat="48.95179" lon="2.10572">
        <ele>34.08</ele>
        <time>2024-02-14T08:44:49Z</time>
      </trkpt>
      <trkpt lat="48.95182" lon="2.10595">
        <ele>33.78</ele>
        <time>2024-02-14T08:44:59Z</time>
      </trkpt>
      <trkpt lat="48.95181" lon="2.10628">
        <ele>33.59</ele>
        <time>2024-02-14T08:45:12Z</time>
      </trkpt>
      <trkpt lat="48.9518" lon="2.10631">
        <ele>33.36</ele>
        <time>2024-02-14T08:45:13Z</time>
      </trkpt>
      <trkpt lat="48.95176" lon="2.10646">
        <ele>33.97</ele>
        <time>2024-02-14T08:45:21Z</time>
      </trkpt>
      <trkpt lat="48.95174" lon="2.10649">
        <ele>33.58</ele>
        <time>2024-02-14T08:45:24Z</time>
      </trkpt>
      <trkpt lat="48.95166" lon="2.10666">
        <ele>32.95</ele>
        <time>2024-02-14T08:45:33Z</time>
      </trkpt>
      <trkpt lat="48.95161" lon="2.10674">
        <ele>33.84</ele>
        <time>2024-02-14T08:45:38Z</time>
      </trkpt>
      <trkpt lat="48.9516" lon="2.10676">
        <ele>32.93</ele>
        <time>2024-02-14T08:45:39Z</time>
      </trkpt>
      <trkpt lat="48.95159" lon="2.10678">
        <ele>33.07</ele>
        <time>2024-02-14T08:45:40Z</time>
      </trkpt>
      <trkpt lat="48.95158" lon="2.10679">
        <ele>33.68</ele>
        <time>2024-02-14T08:45:41Z</time>
      </trkpt>
      <trkpt lat="48.95157" lon="2.1068">
        <ele>33.43</ele>
        <time>2024-02-14T08:45:42Z</time>
      </trkpt>
      <trkpt lat="48.95153" lon="2.10688">
        <ele>33.82</ele>
        <time>2024-02-14T08:45:47Z</time>
      </trkpt>
      <trkpt lat="48.95153" lon="2.10691">
        <ele>33.73</ele>
        <time>2024-02-14T08:45:48Z</time>
      </trkpt>
      <trkpt lat="48.95152" lon="2.10693">
        <ele>33.68</ele>
        <time>2024-02-14T08:45:49Z</time>
      </trkpt>
      <trkpt lat="48.9515" lon="2.10702">
        <ele>33.5</ele>
        <time>2024-02-14T08:45:53Z</time>
      </trkpt>
      <trkpt lat="48.9515" lon="2.10715">
        <ele>34.2</ele>
        <time>2024-02-14T08:46:02Z</time>
      </trkpt>
      <trkpt lat="48.95152" lon="2.10734">
        <ele>34.05</ele>
        <time>2024-02-14T08:46:14Z</time>
      </trkpt>
      <trkpt lat="48.95157" lon="2.10747">
        <ele>34.25</ele>
        <time>2024-02-14T08:46:21Z</time>
      </trkpt>
      <trkpt lat="48.95163" lon="2.10779">
        <ele>35.83</ele>
        <time>2024-02-14T08:46:36Z</time>
      </trkpt>
      <trkpt lat="48.95164" lon="2.10785">
        <ele>35.94</ele>
        <time>2024-02-14T08:46:40Z</time>
      </trkpt>
      <trkpt lat="48.95169" lon="2.10804">
        <ele>36.99</ele>
        <time>2024-02-14T08:46:50Z</time>
      </trkpt>
      <trkpt lat="48.9517" lon="2.10808">
        <ele>36.58</ele>
        <time>2024-02-14T08:46:52Z</time>
      </trkpt>
      <trkpt lat="48.9517" lon="2.10811">
        <ele>36.56</ele>
        <time>2024-02-14T08:46:53Z</time>
      </trkpt>
      <trkpt lat="48.9517" lon="2.10814">
        <ele>36.75</ele>
        <time>2024-02-14T08:46:54Z</time>
      </trkpt>
      <trkpt lat="48.95171" lon="2.10816">
        <ele>37.11</ele>
        <time>2024-02-14T08:46:55Z</time>
      </trkpt>
      <trkpt lat="48.95171" lon="2.10819">
        <ele>37.2</ele>
        <time>2024-02-14T08:46:57Z</time>
      </trkpt>
      <trkpt lat="48.95171" lon="2.10821">
        <ele>37.2</ele>
        <time>2024-02-14T08:46:58Z</time>
      </trkpt>
      <trkpt lat="48.95173" lon="2.10836">
        <ele>38.2</ele>
        <time>2024-02-14T08:47:06Z</time>
      </trkpt>
      <trkpt lat="48.95177" lon="2.10847">
        <ele>37.74</ele>
        <time>2024-02-14T08:47:16Z</time>
      </trkpt>
      <trkpt lat="48.95178" lon="2.10847">
        <ele>37.8</ele>
        <time>2024-02-14T08:47:17Z</time>
      </trkpt>
      <trkpt lat="48.95179" lon="2.1085">
        <ele>37.55</ele>
        <time>2024-02-14T08:47:19Z</time>
      </trkpt>
      <trkpt lat="48.95186" lon="2.10859">
        <ele>38.4</ele>
        <time>2024-02-14T08:47:29Z</time>
      </trkpt>
      <trkpt lat="48.95191" lon="2.1087">
        <ele>38.34</ele>
        <time>2024-02-14T08:47:46Z</time>
      </trkpt>
      <trkpt lat="48.95198" lon="2.10877">
        <ele>38.91</ele>
        <time>2024-02-14T08:48:00Z</time>
      </trkpt>
      <trkpt lat="48.95208" lon="2.10891">
        <ele>38.67</ele>
        <time>2024-02-14T08:48:14Z</time>
      </trkpt>
      <trkpt lat="48.95215" lon="2.10897">
        <ele>38.58</ele>
        <time>2024-02-14T08:48:20Z</time>
      </trkpt>
      <trkpt lat="48.95226" lon="2.10907">
        <ele>38.29</ele>
        <time>2024-02-14T08:48:30Z</time>
      </trkpt>
      <trkpt lat="48.95234" lon="2.10917">
        <ele>38.73</ele>
        <time>2024-02-14T08:48:37Z</time>
      </trkpt>
      <trkpt lat="48.95235" lon="2.10918">
        <ele>38.74</ele>
        <time>2024-02-14T08:48:38Z</time>
      </trkpt>
      <trkpt lat="48.95237" lon="2.1092">
        <ele>38.74</ele>
        <time>2024-02-14T08:48:39Z</time>
      </trkpt>
      <trkpt lat="48.95251" lon="2.10929">
        <ele>38.65</ele>
        <time>2024-02-14T08:48:49Z</time>
      </trkpt>
      <trkpt lat="48.95255" lon="2.10941">
        <ele>38.35</ele>
        <time>2024-02-14T08:48:56Z</time>
      </trkpt>
      <trkpt lat="48.95266" lon="2.10954">
        <ele>38.56</ele>
        <time>2024-02-14T08:49:07Z</time>
      </trkpt>
      <trkpt lat="48.95273" lon="2.10959">
        <ele>38.17</ele>
        <time>2024-02-14T08:49:12Z</time>
      </trkpt>
      <trkpt lat="48.95275" lon="2.1096">
        <ele>38.34</ele>
        <time>2024-02-14T08:49:13Z</time>
      </trkpt>
      <trkpt lat="48.95276" lon="2.10961">
        <ele>38.03</ele>
        <time>2024-02-14T08:49:14Z</time>
      </trkpt>
      <trkpt lat="48.95278" lon="2.10962">
        <ele>38.24</ele>
        <time>2024-02-14T08:49:15Z</time>
      </trkpt>
      <trkpt lat="48.9528" lon="2.10963">
        <ele>38.31</ele>
        <time>2024-02-14T08:49:16Z</time>
      </trkpt>
      <trkpt lat="48.95291" lon="2.10972">
        <ele>37.64</ele>
        <time>2024-02-14T08:49:25Z</time>
      </trkpt>
      <trkpt lat="48.95292" lon="2.10973">
        <ele>37.64</ele>
        <time>2024-02-14T08:49:26Z</time>
      </trkpt>
      <trkpt lat="48.95296" lon="2.10977">
        <ele>37.57</ele>
        <time>2024-02-14T08:49:29Z</time>
      </trkpt>
      <trkpt lat="48.95297" lon="2.10978">
        <ele>37.62</ele>
        <time>2024-02-14T08:49:30Z</time>
      </trkpt>
      <trkpt lat="48.95309" lon="2.10991">
        <ele>37.22</ele>
        <time>2024-02-14T08:49:40Z</time>
      </trkpt>
      <trkpt lat="48.95317" lon="2.11">
        <ele>36.79</ele>
        <time>2024-02-14T08:49:51Z</time>
      </trkpt>
      <trkpt lat="48.95325" lon="2.11008">
        <ele>36.66</ele>
        <time>2024-02-14T08:49:58Z</time>
      </trkpt>
      <trkpt lat="48.95329" lon="2.11013">
        <ele>36.75</ele>
        <time>2024-02-14T08:50:02Z</time>
      </trkpt>
      <trkpt lat="48.9533" lon="2.11014">
        <ele>36.51</ele>
        <time>2024-02-14T08:50:03Z</time>
      </trkpt>
      <trkpt lat="48.95341" lon="2.11027">
        <ele>36.08</ele>
        <time>2024-02-14T08:50:12Z</time>
      </trkpt>
      <trkpt lat="48.95342" lon="2.11029">
        <ele>36.33</ele>
        <time>2024-02-14T08:50:13Z</time>
      </trkpt>
      <trkpt lat="48.95359" lon="2.11048">
        <ele>35.27</ele>
        <time>2024-02-14T08:50:29Z</time>
      </trkpt>
      <trkpt lat="48.95363" lon="2.1105">
        <ele>35.56</ele>
        <time>2024-02-14T08:50:31Z</time>
      </trkpt>
      <trkpt lat="48.95379" lon="2.11065">
        <ele>35.31</ele>
        <time>2024-02-14T08:50:43Z</time>
      </trkpt>
      <trkpt lat="48.95381" lon="2.11068">
        <ele>34.69</ele>
        <time>2024-02-14T08:50:46Z</time>
      </trkpt>
      <trkpt lat="48.95382" lon="2.1107">
        <ele>34.96</ele>
        <time>2024-02-14T08:50:47Z</time>
      </trkpt>
      <trkpt lat="48.95384" lon="2.11072">
        <ele>34.72</ele>
        <time>2024-02-14T08:50:49Z</time>
      </trkpt>
      <trkpt lat="48.95388" lon="2.11074">
        <ele>34.84</ele>
        <time>2024-02-14T08:50:51Z</time>
      </trkpt>
      <trkpt lat="48.95398" lon="2.11082">
        <ele>34.53</ele>
        <time>2024-02-14T08:51:01Z</time>
      </trkpt>
      <trkpt lat="48.95399" lon="2.11082">
        <ele>34.55</ele>
        <time>2024-02-14T08:51:02Z</time>
      </trkpt>
      <trkpt lat="48.95401" lon="2.11085">
        <ele>34.53</ele>
        <time>2024-02-14T08:51:03Z</time>
      </trkpt>
      <trkpt lat="48.95403" lon="2.11087">
        <ele>34.53</ele>
        <time>2024-02-14T08:51:04Z</time>
      </trkpt>
      <trkpt lat="48.95405" lon="2.11089">
        <ele>34.17</ele>
        <time>2024-02-14T08:51:05Z</time>
      </trkpt>
      <trkpt lat="48.95407" lon="2.1109">
        <ele>34.39</ele>
        <time>2024-02-14T08:51:06Z</time>
      </trkpt>
      <trkpt lat="48.95419" lon="2.11107">
        <ele>33.7</ele>
        <time>2024-02-14T08:51:16Z</time>
      </trkpt>
      <trkpt lat="48.9542" lon="2.11109">
        <ele>33.92</ele>
        <time>2024-02-14T08:51:17Z</time>
      </trkpt>
      <trkpt lat="48.95422" lon="2.1111">
        <ele>33.93</ele>
        <time>2024-02-14T08:51:18Z</time>
      </trkpt>
      <trkpt lat="48.95424" lon="2.11111">
        <ele>33.42</ele>
        <time>2024-02-14T08:51:19Z</time>
      </trkpt>
      <trkpt lat="48.95426" lon="2.11112">
        <ele>33.91</ele>
        <time>2024-02-14T08:51:20Z</time>
      </trkpt>
      <trkpt lat="48.95427" lon="2.11114">
        <ele>34.08</ele>
        <time>2024-02-14T08:51:21Z</time>
      </trkpt>
      <trkpt lat="48.95428" lon="2.11115">
        <ele>33.63</ele>
        <time>2024-02-14T08:51:22Z</time>
      </trkpt>
      <trkpt lat="48.95437" lon="2.11123">
        <ele>33.79</ele>
        <time>2024-02-14T08:51:29Z</time>
      </trkpt>
      <trkpt lat="48.95443" lon="2.11129">
        <ele>33.38</ele>
        <time>2024-02-14T08:51:34Z</time>
      </trkpt>
      <trkpt lat="48.95445" lon="2.1113">
        <ele>32.75</ele>
        <time>2024-02-14T08:51:36Z</time>
      </trkpt>
      <trkpt lat="48.95446" lon="2.11131">
        <ele>33.35</ele>
        <time>2024-02-14T08:51:37Z</time>
      </trkpt>
      <trkpt lat="48.95459" lon="2.11142">
        <ele>33.36</ele>
        <time>2024-02-14T08:51:46Z</time>
      </trkpt>
      <trkpt lat="48.95464" lon="2.11147">
        <ele>32.83</ele>
        <time>2024-02-14T08:51:49Z</time>
      </trkpt>
      <trkpt lat="48.95466" lon="2.11151">
        <ele>32.91</ele>
        <time>2024-02-14T08:51:51Z</time>
      </trkpt>
      <trkpt lat="48.95468" lon="2.11153">
        <ele>32.85</ele>
        <time>2024-02-14T08:51:52Z</time>
      </trkpt>
      <trkpt lat="48.95469" lon="2.11155">
        <ele>32.91</ele>
        <time>2024-02-14T08:51:53Z</time>
      </trkpt>
      <trkpt lat="48.9548" lon="2.11163">
        <ele>32.52</ele>
        <time>2024-02-14T08:52:02Z</time>
      </trkpt>
      <trkpt lat="48.95489" lon="2.11185">
        <ele>32.19</ele>
        <time>2024-02-14T08:52:12Z</time>
      </trkpt>
      <trkpt lat="48.95494" lon="2.11196">
        <ele>31.78</ele>
        <time>2024-02-14T08:52:18Z</time>
      </trkpt>
      <trkpt lat="48.95495" lon="2.11198">
        <ele>31.72</ele>
        <time>2024-02-14T08:52:19Z</time>
      </trkpt>
      <trkpt lat="48.95495" lon="2.112">
        <ele>31.93</ele>
        <time>2024-02-14T08:52:20Z</time>
      </trkpt>
      <trkpt lat="48.95514" lon="2.11208">
        <ele>31.01</ele>
        <time>2024-02-14T08:52:34Z</time>
      </trkpt>
      <trkpt lat="48.95528" lon="2.11224">
        <ele>30.44</ele>
        <time>2024-02-14T08:52:46Z</time>
      </trkpt>
      <trkpt lat="48.95529" lon="2.11225">
        <ele>30.87</ele>
        <time>2024-02-14T08:52:47Z</time>
      </trkpt>
      <trkpt lat="48.95531" lon="2.11226">
        <ele>31.21</ele>
        <time>2024-02-14T08:52:48Z</time>
      </trkpt>
      <trkpt lat="48.95532" lon="2.11228">
        <ele>30.98</ele>
        <time>2024-02-14T08:52:49Z</time>
      </trkpt>
      <trkpt lat="48.95533" lon="2.11229">
        <ele>30.86</ele>
        <time>2024-02-14T08:52:50Z</time>
      </trkpt>
      <trkpt lat="48.95535" lon="2.11231">
        <ele>30.78</ele>
        <time>2024-02-14T08:52:51Z</time>
      </trkpt>
      <trkpt lat="48.95548" lon="2.11248">
        <ele>31.04</ele>
        <time>2024-02-14T08:53:03Z</time>
      </trkpt>
      <trkpt lat="48.95558" lon="2.11257">
        <ele>30.33</ele>
        <time>2024-02-14T08:53:12Z</time>
      </trkpt>
      <trkpt lat="48.95562" lon="2.11254">
        <ele>30.67</ele>
        <time>2024-02-14T08:53:16Z</time>
      </trkpt>
      <trkpt lat="48.95566" lon="2.11249">
        <ele>30.36</ele>
        <time>2024-02-14T08:53:30Z</time>
      </trkpt>
      <trkpt lat="48.95573" lon="2.11246">
        <ele>30.07</ele>
        <time>2024-02-14T08:53:46Z</time>
      </trkpt>
      <trkpt lat="48.95584" lon="2.11244">
        <ele>30.03</ele>
        <time>2024-02-14T08:54:01Z</time>
      </trkpt>
      <trkpt lat="48.95593" lon="2.11241">
        <ele>29.57</ele>
        <time>2024-02-14T08:54:11Z</time>
      </trkpt>
      <trkpt lat="48.95607" lon="2.11234">
        <ele>29.85</ele>
        <time>2024-02-14T08:54:25Z</time>
      </trkpt>
      <trkpt lat="48.9562" lon="2.1123">
        <ele>29.4</ele>
        <time>2024-02-14T08:54:41Z</time>
      </trkpt>
      <trkpt lat="48.95627" lon="2.11229">
        <ele>29.24</ele>
        <time>2024-02-14T08:54:53Z</time>
      </trkpt>
      <trkpt lat="48.95648" lon="2.1122">
        <ele>29.3</ele>
        <time>2024-02-14T08:55:07Z</time>
      </trkpt>
      <trkpt lat="48.95666" lon="2.11209">
        <ele>29.38</ele>
        <time>2024-02-14T08:55:21Z</time>
      </trkpt>
      <trkpt lat="48.95682" lon="2.11203">
        <ele>29.29</ele>
        <time>2024-02-14T08:55:36Z</time>
      </trkpt>
      <trkpt lat="48.95704" lon="2.11188">
        <ele>29.48</ele>
        <time>2024-02-14T08:55:51Z</time>
      </trkpt>
      <trkpt lat="48.95716" lon="2.11184">
        <ele>29.4</ele>
        <time>2024-02-14T08:56:03Z</time>
      </trkpt>
      <trkpt lat="48.95722" lon="2.11193">
        <ele>29.77</ele>
        <time>2024-02-14T08:56:14Z</time>
      </trkpt>
      <trkpt lat="48.95728" lon="2.11193">
        <ele>29.78</ele>
        <time>2024-02-14T08:56:30Z</time>
      </trkpt>
      <trkpt lat="48.95729" lon="2.112">
        <ele>30.29</ele>
        <time>2024-02-14T08:56:37Z</time>
      </trkpt>
      <trkpt lat="48.9573" lon="2.11204">
        <ele>30.68</ele>
        <time>2024-02-14T08:56:40Z</time>
      </trkpt>
      <trkpt lat="48.95727" lon="2.11221">
        <ele>33.8</ele>
        <time>2024-02-14T08:56:50Z</time>
      </trkpt>
      <trkpt lat="48.95728" lon="2.11229">
        <ele>34.44</ele>
        <time>2024-02-14T08:57:03Z</time>
      </trkpt>
      <trkpt lat="48.95722" lon="2.11234">
        <ele>34.66</ele>
        <time>2024-02-14T08:57:18Z</time>
      </trkpt>
      <trkpt lat="48.95721" lon="2.11229">
        <ele>34.88</ele>
        <time>2024-02-14T08:57:34Z</time>
      </trkpt>
      <trkpt lat="48.9572" lon="2.11218">
        <ele>35.05</ele>
        <time>2024-02-14T08:57:49Z</time>
      </trkpt>
      <trkpt lat="48.95726" lon="2.11216">
        <ele>33.86</ele>
        <time>2024-02-14T08:58:12Z</time>
      </trkpt>
      <trkpt lat="48.95727" lon="2.11216">
        <ele>33.64</ele>
        <time>2024-02-14T08:58:32Z</time>
      </trkpt>
      <trkpt lat="48.95725" lon="2.1121">
        <ele>30.62</ele>
        <time>2024-02-14T08:58:48Z</time>
      </trkpt>
      <trkpt lat="48.95725" lon="2.11207">
        <ele>29.3</ele>
        <time>2024-02-14T08:58:50Z</time>
      </trkpt>
      <trkpt lat="48.95728" lon="2.11199">
        <ele>29.68</ele>
        <time>2024-02-14T08:59:02Z</time>
      </trkpt>
      <trkpt lat="48.95735" lon="2.11192">
        <ele>29.43</ele>
        <time>2024-02-14T08:59:16Z</time>
      </trkpt>
      <trkpt lat="48.95738" lon="2.11192">
        <ele>29.33</ele>
        <time>2024-02-14T08:59:32Z</time>
      </trkpt>
      <trkpt lat="48.95741" lon="2.11188">
        <ele>28.98</ele>
        <time>2024-02-14T08:59:52Z</time>
      </trkpt>
      <trkpt lat="48.95741" lon="2.11184">
        <ele>29.63</ele>
        <time>2024-02-14T09:00:12Z</time>
      </trkpt>
      <trkpt lat="48.95739" lon="2.11183">
        <ele>29.48</ele>
        <time>2024-02-14T09:00:28Z</time>
      </trkpt>
      <trkpt lat="48.95741" lon="2.11182">
        <ele>30.09</ele>
        <time>2024-02-14T09:00:49Z</time>
      </trkpt>
      <trkpt lat="48.95739" lon="2.1118">
        <ele>29.49</ele>
        <time>2024-02-14T09:01:11Z</time>
      </trkpt>
      <trkpt lat="48.95739" lon="2.1118">
        <ele>29.78</ele>
        <time>2024-02-14T09:01:33Z</time>
      </trkpt>
      <trkpt lat="48.95739" lon="2.11187">
        <ele>29.89</ele>
        <time>2024-02-14T09:01:53Z</time>
      </trkpt>
      <trkpt lat="48.95741" lon="2.11194">
        <ele>29.18</ele>
        <time>2024-02-14T09:01:57Z</time>
      </trkpt>
      <trkpt lat="48.95746" lon="2.11203">
        <ele>29.95</ele>
        <time>2024-02-14T09:02:03Z</time>
      </trkpt>
      <trkpt lat="48.95751" lon="2.11222">
        <ele>29.82</ele>
        <time>2024-02-14T09:02:15Z</time>
      </trkpt>
      <trkpt lat="48.95756" lon="2.11243">
        <ele>29.76</ele>
        <time>2024-02-14T09:02:27Z</time>
      </trkpt>
      <trkpt lat="48.95763" lon="2.11264">
        <ele>29.76</ele>
        <time>2024-02-14T09:02:39Z</time>
      </trkpt>
      <trkpt lat="48.95765" lon="2.11277">
        <ele>29.26</ele>
        <time>2024-02-14T09:02:45Z</time>
      </trkpt>
      <trkpt lat="48.95774" lon="2.11299">
        <ele>29.83</ele>
        <time>2024-02-14T09:02:57Z</time>
      </trkpt>
      <trkpt lat="48.95781" lon="2.11321">
        <ele>29.24</ele>
        <time>2024-02-14T09:03:08Z</time>
      </trkpt>
      <trkpt lat="48.95786" lon="2.11343">
        <ele>29.42</ele>
        <time>2024-02-14T09:03:18Z</time>
      </trkpt>
      <trkpt lat="48.95793" lon="2.11368">
        <ele>29.68</ele>
        <time>2024-02-14T09:03:29Z</time>
      </trkpt>
      <trkpt lat="48.95795" lon="2.11379">
        <ele>29.15</ele>
        <time>2024-02-14T09:03:33Z</time>
      </trkpt>
      <trkpt lat="48.95798" lon="2.11386">
        <ele>28.67</ele>
        <time>2024-02-14T09:03:36Z</time>
      </trkpt>
      <trkpt lat="48.958" lon="2.1139">
        <ele>28.58</ele>
        <time>2024-02-14T09:03:39Z</time>
      </trkpt>
      <trkpt lat="48.95809" lon="2.11417">
        <ele>28.65</ele>
        <time>2024-02-14T09:03:50Z</time>
      </trkpt>
      <trkpt lat="48.95811" lon="2.11429">
        <ele>28.31</ele>
        <time>2024-02-14T09:03:54Z</time>
      </trkpt>
      <trkpt lat="48.95817" lon="2.11451">
        <ele>27.83</ele>
        <time>2024-02-14T09:04:05Z</time>
      </trkpt>
      <trkpt lat="48.95823" lon="2.11468">
        <ele>27.71</ele>
        <time>2024-02-14T09:04:15Z</time>
      </trkpt>
      <trkpt lat="48.95827" lon="2.11501">
        <ele>27.52</ele>
        <time>2024-02-14T09:04:25Z</time>
      </trkpt>
      <trkpt lat="48.95827" lon="2.11524">
        <ele>27.93</ele>
        <time>2024-02-14T09:04:35Z</time>
      </trkpt>
      <trkpt lat="48.95831" lon="2.11545">
        <ele>27.92</ele>
        <time>2024-02-14T09:04:43Z</time>
      </trkpt>
      <trkpt lat="48.95836" lon="2.11564">
        <ele>27.03</ele>
        <time>2024-02-14T09:04:55Z</time>
      </trkpt>
      <trkpt lat="48.95836" lon="2.11567">
        <ele>27.09</ele>
        <time>2024-02-14T09:04:58Z</time>
      </trkpt>
      <trkpt lat="48.9584" lon="2.11588">
        <ele>26.72</ele>
        <time>2024-02-14T09:05:09Z</time>
      </trkpt>
      <trkpt lat="48.95844" lon="2.11598">
        <ele>26.33</ele>
        <time>2024-02-14T09:05:14Z</time>
      </trkpt>
      <trkpt lat="48.95849" lon="2.1162">
        <ele>26.76</ele>
        <time>2024-02-14T09:05:26Z</time>
      </trkpt>
      <trkpt lat="48.95849" lon="2.11623">
        <ele>26.77</ele>
        <time>2024-02-14T09:05:27Z</time>
      </trkpt>
      <trkpt lat="48.95852" lon="2.11644">
        <ele>26.23</ele>
        <time>2024-02-14T09:05:38Z</time>
      </trkpt>
      <trkpt lat="48.95856" lon="2.11659">
        <ele>25.7</ele>
        <time>2024-02-14T09:05:48Z</time>
      </trkpt>
      <trkpt lat="48.95864" lon="2.11683">
        <ele>25.8</ele>
        <time>2024-02-14T09:06:01Z</time>
      </trkpt>
      <trkpt lat="48.95867" lon="2.11687">
        <ele>25.78</ele>
        <time>2024-02-14T09:06:04Z</time>
      </trkpt>
      <trkpt lat="48.95872" lon="2.11707">
        <ele>25.39</ele>
        <time>2024-02-14T09:06:15Z</time>
      </trkpt>
      <trkpt lat="48.95874" lon="2.1171">
        <ele>25.47</ele>
        <time>2024-02-14T09:06:17Z</time>
      </trkpt>
      <trkpt lat="48.95875" lon="2.11738">
        <ele>24.71</ele>
        <time>2024-02-14T09:06:29Z</time>
      </trkpt>
      <trkpt lat="48.95875" lon="2.11757">
        <ele>25.07</ele>
        <time>2024-02-14T09:06:37Z</time>
      </trkpt>
      <trkpt lat="48.95876" lon="2.11772">
        <ele>24.58</ele>
        <time>2024-02-14T09:06:46Z</time>
      </trkpt>
      <trkpt lat="48.95875" lon="2.11777">
        <ele>24.69</ele>
        <time>2024-02-14T09:06:49Z</time>
      </trkpt>
      <trkpt lat="48.95872" lon="2.11799">
        <ele>24.4</ele>
        <time>2024-02-14T09:07:00Z</time>
      </trkpt>
      <trkpt lat="48.95867" lon="2.11825">
        <ele>24.45</ele>
        <time>2024-02-14T09:07:11Z</time>
      </trkpt>
      <trkpt lat="48.95863" lon="2.11851">
        <ele>23.72</ele>
        <time>2024-02-14T09:07:22Z</time>
      </trkpt>
      <trkpt lat="48.95859" lon="2.11871">
        <ele>24.07</ele>
        <time>2024-02-14T09:07:31Z</time>
      </trkpt>
      <trkpt lat="48.95855" lon="2.11887">
        <ele>23.32</ele>
        <time>2024-02-14T09:07:41Z</time>
      </trkpt>
      <trkpt lat="48.9585" lon="2.11916">
        <ele>23.18</ele>
        <time>2024-02-14T09:07:55Z</time>
      </trkpt>
      <trkpt lat="48.95846" lon="2.11934">
        <ele>23.17</ele>
        <time>2024-02-14T09:08:02Z</time>
      </trkpt>
      <trkpt lat="48.95842" lon="2.11945">
        <ele>24.13</ele>
        <time>2024-02-14T09:08:07Z</time>
      </trkpt>
      <trkpt lat="48.95829" lon="2.11964">
        <ele>23.02</ele>
        <time>2024-02-14T09:08:18Z</time>
      </trkpt>
      <trkpt lat="48.95818" lon="2.11964">
        <ele>23.05</ele>
        <time>2024-02-14T09:08:30Z</time>
      </trkpt>
      <trkpt lat="48.95812" lon="2.11965">
        <ele>22.99</ele>
        <time>2024-02-14T09:08:36Z</time>
      </trkpt>
      <trkpt lat="48.95808" lon="2.11966">
        <ele>23.08</ele>
        <time>2024-02-14T09:08:39Z</time>
      </trkpt>
      <trkpt lat="48.95794" lon="2.11965">
        <ele>23.74</ele>
        <time>2024-02-14T09:08:51Z</time>
      </trkpt>
      <trkpt lat="48.95774" lon="2.11963">
        <ele>23.5</ele>
        <time>2024-02-14T09:09:05Z</time>
      </trkpt>
      <trkpt lat="48.95765" lon="2.11965">
        <ele>23.87</ele>
        <time>2024-02-14T09:09:12Z</time>
      </trkpt>
      <trkpt lat="48.9576" lon="2.11966">
        <ele>24.3</ele>
        <time>2024-02-14T09:09:15Z</time>
      </trkpt>
      <trkpt lat="48.95754" lon="2.11961">
        <ele>24.07</ele>
        <time>2024-02-14T09:09:19Z</time>
      </trkpt>
      <trkpt lat="48.95745" lon="2.11951">
        <ele>23.76</ele>
        <time>2024-02-14T09:09:29Z</time>
      </trkpt>
      <trkpt lat="48.95726" lon="2.1195">
        <ele>24.31</ele>
        <time>2024-02-14T09:09:44Z</time>
      </trkpt>
      <trkpt lat="48.95713" lon="2.1194">
        <ele>25.1</ele>
        <time>2024-02-14T09:09:55Z</time>
      </trkpt>
      <trkpt lat="48.95696" lon="2.1193">
        <ele>25.19</ele>
        <time>2024-02-14T09:10:08Z</time>
      </trkpt>
      <trkpt lat="48.95682" lon="2.11924">
        <ele>25.09</ele>
        <time>2024-02-14T09:10:21Z</time>
      </trkpt>
      <trkpt lat="48.95662" lon="2.11921">
        <ele>25.71</ele>
        <time>2024-02-14T09:10:37Z</time>
      </trkpt>
      <trkpt lat="48.95659" lon="2.11919">
        <ele>25.34</ele>
        <time>2024-02-14T09:10:39Z</time>
      </trkpt>
      <trkpt lat="48.95646" lon="2.11914">
        <ele>25.91</ele>
        <time>2024-02-14T09:10:51Z</time>
      </trkpt>
      <trkpt lat="48.95644" lon="2.11912">
        <ele>26.04</ele>
        <time>2024-02-14T09:10:53Z</time>
      </trkpt>
      <trkpt lat="48.9564" lon="2.11912">
        <ele>26.38</ele>
        <time>2024-02-14T09:10:55Z</time>
      </trkpt>
      <trkpt lat="48.95637" lon="2.11911">
        <ele>26.34</ele>
        <time>2024-02-14T09:10:57Z</time>
      </trkpt>
      <trkpt lat="48.95622" lon="2.11911">
        <ele>26.17</ele>
        <time>2024-02-14T09:11:07Z</time>
      </trkpt>
      <trkpt lat="48.95619" lon="2.11909">
        <ele>26.12</ele>
        <time>2024-02-14T09:11:09Z</time>
      </trkpt>
      <trkpt lat="48.95604" lon="2.119">
        <ele>26.14</ele>
        <time>2024-02-14T09:11:21Z</time>
      </trkpt>
      <trkpt lat="48.95591" lon="2.11901">
        <ele>25.9</ele>
        <time>2024-02-14T09:11:30Z</time>
      </trkpt>
      <trkpt lat="48.95577" lon="2.11893">
        <ele>26.32</ele>
        <time>2024-02-14T09:11:44Z</time>
      </trkpt>
      <trkpt lat="48.95567" lon="2.11895">
        <ele>25.78</ele>
        <time>2024-02-14T09:12:04Z</time>
      </trkpt>
      <trkpt lat="48.95564" lon="2.11896">
        <ele>25.24</ele>
        <time>2024-02-14T09:12:18Z</time>
      </trkpt>
      <trkpt lat="48.95563" lon="2.11897">
        <ele>25.78</ele>
        <time>2024-02-14T09:12:41Z</time>
      </trkpt>
      <trkpt lat="48.95559" lon="2.119">
        <ele>25.73</ele>
        <time>2024-02-14T09:13:03Z</time>
      </trkpt>
      <trkpt lat="48.95559" lon="2.119">
        <ele>25.67</ele>
        <time>2024-02-14T09:13:22Z</time>
      </trkpt>
      <trkpt lat="48.95558" lon="2.119">
        <ele>25.85</ele>
        <time>2024-02-14T09:13:37Z</time>
      </trkpt>
      <trkpt lat="48.95556" lon="2.11897">
        <ele>26.23</ele>
        <time>2024-02-14T09:13:59Z</time>
      </trkpt>
      <trkpt lat="48.95553" lon="2.11909">
        <ele>26.68</ele>
        <time>2024-02-14T09:14:11Z</time>
      </trkpt>
      <trkpt lat="48.95553" lon="2.1193">
        <ele>26.41</ele>
        <time>2024-02-14T09:14:24Z</time>
      </trkpt>
      <trkpt lat="48.95555" lon="2.11954">
        <ele>26.39</ele>
        <time>2024-02-14T09:14:36Z</time>
      </trkpt>
      <trkpt lat="48.95556" lon="2.11958">
        <ele>26.46</ele>
        <time>2024-02-14T09:14:38Z</time>
      </trkpt>
      <trkpt lat="48.95557" lon="2.11972">
        <ele>26.53</ele>
        <time>2024-02-14T09:14:45Z</time>
      </trkpt>
      <trkpt lat="48.95558" lon="2.11997">
        <ele>26.69</ele>
        <time>2024-02-14T09:14:59Z</time>
      </trkpt>
      <trkpt lat="48.95559" lon="2.12004">
        <ele>26.43</ele>
        <time>2024-02-14T09:15:03Z</time>
      </trkpt>
      <trkpt lat="48.95562" lon="2.12026">
        <ele>25.86</ele>
        <time>2024-02-14T09:15:13Z</time>
      </trkpt>
      <trkpt lat="48.95563" lon="2.12045">
        <ele>25.5</ele>
        <time>2024-02-14T09:15:23Z</time>
      </trkpt>
      <trkpt lat="48.95565" lon="2.12065">
        <ele>25.23</ele>
        <time>2024-02-14T09:15:32Z</time>
      </trkpt>
      <trkpt lat="48.95566" lon="2.12083">
        <ele>24.71</ele>
        <time>2024-02-14T09:15:40Z</time>
      </trkpt>
      <trkpt lat="48.95568" lon="2.12102">
        <ele>25.08</ele>
        <time>2024-02-14T09:15:48Z</time>
      </trkpt>
      <trkpt lat="48.95567" lon="2.12111">
        <ele>24.11</ele>
        <time>2024-02-14T09:15:52Z</time>
      </trkpt>
      <trkpt lat="48.95569" lon="2.12124">
        <ele>24.13</ele>
        <time>2024-02-14T09:15:58Z</time>
      </trkpt>
      <trkpt lat="48.9557" lon="2.12137">
        <ele>23.26</ele>
        <time>2024-02-14T09:16:03Z</time>
      </trkpt>
      <trkpt lat="48.95571" lon="2.12149">
        <ele>23.29</ele>
        <time>2024-02-14T09:16:08Z</time>
      </trkpt>
      <trkpt lat="48.95571" lon="2.12153">
        <ele>23.3</ele>
        <time>2024-02-14T09:16:10Z</time>
      </trkpt>
      <trkpt lat="48.95567" lon="2.12173">
        <ele>22.55</ele>
        <time>2024-02-14T09:16:23Z</time>
      </trkpt>
      <trkpt lat="48.95563" lon="2.12178">
        <ele>23.24</ele>
        <time>2024-02-14T09:16:28Z</time>
      </trkpt>
      <trkpt lat="48.9556" lon="2.12182">
        <ele>23.26</ele>
        <time>2024-02-14T09:16:30Z</time>
      </trkpt>
      <trkpt lat="48.95554" lon="2.1219">
        <ele>22.54</ele>
        <time>2024-02-14T09:16:39Z</time>
      </trkpt>
      <trkpt lat="48.95548" lon="2.12193">
        <ele>22.91</ele>
        <time>2024-02-14T09:16:44Z</time>
      </trkpt>
      <trkpt lat="48.95532" lon="2.12203">
        <ele>23.16</ele>
        <time>2024-02-14T09:16:57Z</time>
      </trkpt>
      <trkpt lat="48.95527" lon="2.12207">
        <ele>22.92</ele>
        <time>2024-02-14T09:17:02Z</time>
      </trkpt>
      <trkpt lat="48.95515" lon="2.12218">
        <ele>22.76</ele>
        <time>2024-02-14T09:17:15Z</time>
      </trkpt>
      <trkpt lat="48.95509" lon="2.12224">
        <ele>23.36</ele>
        <time>2024-02-14T09:17:21Z</time>
      </trkpt>
      <trkpt lat="48.955" lon="2.12233">
        <ele>22.37</ele>
        <time>2024-02-14T09:17:31Z</time>
      </trkpt>
      <trkpt lat="48.95488" lon="2.12238">
        <ele>22.11</ele>
        <time>2024-02-14T09:17:42Z</time>
      </trkpt>
      <trkpt lat="48.95479" lon="2.1224">
        <ele>22.3</ele>
        <time>2024-02-14T09:17:49Z</time>
      </trkpt>
      <trkpt lat="48.95475" lon="2.12237">
        <ele>22.02</ele>
        <time>2024-02-14T09:17:53Z</time>
      </trkpt>
      <trkpt lat="48.9547" lon="2.12238">
        <ele>22.14</ele>
        <time>2024-02-14T09:17:57Z</time>
      </trkpt>
      <trkpt lat="48.95459" lon="2.12235">
        <ele>22.11</ele>
        <time>2024-02-14T09:18:07Z</time>
      </trkpt>
      <trkpt lat="48.95447" lon="2.12228">
        <ele>21.32</ele>
        <time>2024-02-14T09:18:18Z</time>
      </trkpt>
      <trkpt lat="48.95444" lon="2.1223">
        <ele>21.77</ele>
        <time>2024-02-14T09:18:21Z</time>
      </trkpt>
      <trkpt lat="48.95425" lon="2.12237">
        <ele>22.01</ele>
        <time>2024-02-14T09:18:33Z</time>
      </trkpt>
      <trkpt lat="48.95412" lon="2.12232">
        <ele>21.9</ele>
        <time>2024-02-14T09:18:44Z</time>
      </trkpt>
      <trkpt lat="48.95392" lon="2.12231">
        <ele>22</ele>
        <time>2024-02-14T09:18:58Z</time>
      </trkpt>
      <trkpt lat="48.95372" lon="2.12232">
        <ele>21.46</ele>
        <time>2024-02-14T09:19:10Z</time>
      </trkpt>
      <trkpt lat="48.95354" lon="2.1223">
        <ele>21.14</ele>
        <time>2024-02-14T09:19:22Z</time>
      </trkpt>
      <trkpt lat="48.9534" lon="2.12227">
        <ele>21.42</ele>
        <time>2024-02-14T09:19:32Z</time>
      </trkpt>
      <trkpt lat="48.95324" lon="2.12229">
        <ele>21.9</ele>
        <time>2024-02-14T09:19:44Z</time>
      </trkpt>
      <trkpt lat="48.95313" lon="2.12231">
        <ele>21.35</ele>
        <time>2024-02-14T09:19:53Z</time>
      </trkpt>
      <trkpt lat="48.95301" lon="2.1224">
        <ele>20.7</ele>
        <time>2024-02-14T09:20:03Z</time>
      </trkpt>
      <trkpt lat="48.95284" lon="2.12252">
        <ele>20.82</ele>
        <time>2024-02-14T09:20:15Z</time>
      </trkpt>
      <trkpt lat="48.95281" lon="2.12255">
        <ele>20.8</ele>
        <time>2024-02-14T09:20:17Z</time>
      </trkpt>
      <trkpt lat="48.95266" lon="2.1227">
        <ele>20.86</ele>
        <time>2024-02-14T09:20:30Z</time>
      </trkpt>
      <trkpt lat="48.95253" lon="2.1228">
        <ele>20.74</ele>
        <time>2024-02-14T09:20:40Z</time>
      </trkpt>
      <trkpt lat="48.95238" lon="2.12283">
        <ele>20.82</ele>
        <time>2024-02-14T09:20:49Z</time>
      </trkpt>
      <trkpt lat="48.95233" lon="2.12282">
        <ele>20.57</ele>
        <time>2024-02-14T09:20:53Z</time>
      </trkpt>
      <trkpt lat="48.95214" lon="2.12285">
        <ele>20.54</ele>
        <time>2024-02-14T09:21:06Z</time>
      </trkpt>
      <trkpt lat="48.95204" lon="2.12281">
        <ele>19.86</ele>
        <time>2024-02-14T09:21:13Z</time>
      </trkpt>
      <trkpt lat="48.95188" lon="2.12284">
        <ele>20.01</ele>
        <time>2024-02-14T09:21:27Z</time>
      </trkpt>
      <trkpt lat="48.95178" lon="2.12285">
        <ele>20.26</ele>
        <time>2024-02-14T09:21:38Z</time>
      </trkpt>
      <trkpt lat="48.95169" lon="2.12297">
        <ele>20.21</ele>
        <time>2024-02-14T09:21:53Z</time>
      </trkpt>
      <trkpt lat="48.95156" lon="2.12318">
        <ele>19.8</ele>
        <time>2024-02-14T09:22:21Z</time>
      </trkpt>
      <trkpt lat="48.95157" lon="2.12319">
        <ele>19.75</ele>
        <time>2024-02-14T09:22:33Z</time>
      </trkpt>
      <trkpt lat="48.95166" lon="2.12317">
        <ele>19.59</ele>
        <time>2024-02-14T09:22:50Z</time>
      </trkpt>
      <trkpt lat="48.95165" lon="2.12312">
        <ele>19.81</ele>
        <time>2024-02-14T09:23:04Z</time>
      </trkpt>
      <trkpt lat="48.9516" lon="2.12319">
        <ele>20.14</ele>
        <time>2024-02-14T09:23:24Z</time>
      </trkpt>
      <trkpt lat="48.95155" lon="2.12318">
        <ele>21.28</ele>
        <time>2024-02-14T09:23:42Z</time>
      </trkpt>
      <trkpt lat="48.95157" lon="2.12316">
        <ele>21.32</ele>
        <time>2024-02-14T09:24:00Z</time>
      </trkpt>
      <trkpt lat="48.95156" lon="2.12313">
        <ele>21.18</ele>
        <time>2024-02-14T09:24:16Z</time>
      </trkpt>
      <trkpt lat="48.95156" lon="2.12315">
        <ele>21.8</ele>
        <time>2024-02-14T09:24:35Z</time>
      </trkpt>
      <trkpt lat="48.95157" lon="2.12319">
        <ele>22.13</ele>
        <time>2024-02-14T09:24:54Z</time>
      </trkpt>
      <trkpt lat="48.95148" lon="2.12318">
        <ele>22.19</ele>
        <time>2024-02-14T09:25:10Z</time>
      </trkpt>
      <trkpt lat="48.95132" lon="2.12314">
        <ele>22.4</ele>
        <time>2024-02-14T09:25:21Z</time>
      </trkpt>
      <trkpt lat="48.95125" lon="2.12313">
        <ele>22.99</ele>
        <time>2024-02-14T09:25:27Z</time>
      </trkpt>
      <trkpt lat="48.95108" lon="2.12315">
        <ele>22.85</ele>
        <time>2024-02-14T09:25:39Z</time>
      </trkpt>
      <trkpt lat="48.9509" lon="2.12314">
        <ele>23.33</ele>
        <time>2024-02-14T09:25:50Z</time>
      </trkpt>
      <trkpt lat="48.9508" lon="2.12314">
        <ele>23.98</ele>
        <time>2024-02-14T09:25:57Z</time>
      </trkpt>
      <trkpt lat="48.95071" lon="2.12314">
        <ele>23.69</ele>
        <time>2024-02-14T09:26:04Z</time>
      </trkpt>
      <trkpt lat="48.95064" lon="2.12315">
        <ele>23.98</ele>
        <time>2024-02-14T09:26:10Z</time>
      </trkpt>
      <trkpt lat="48.95053" lon="2.12312">
        <ele>24.25</ele>
        <time>2024-02-14T09:26:17Z</time>
      </trkpt>
      <trkpt lat="48.95049" lon="2.12313">
        <ele>24.1</ele>
        <time>2024-02-14T09:26:20Z</time>
      </trkpt>
      <trkpt lat="48.9504" lon="2.12311">
        <ele>24.36</ele>
        <time>2024-02-14T09:26:26Z</time>
      </trkpt>
      <trkpt lat="48.95032" lon="2.1231">
        <ele>24.48</ele>
        <time>2024-02-14T09:26:31Z</time>
      </trkpt>
      <trkpt lat="48.95018" lon="2.12308">
        <ele>24.6</ele>
        <time>2024-02-14T09:26:42Z</time>
      </trkpt>
      <trkpt lat="48.95008" lon="2.12305">
        <ele>24.76</ele>
        <time>2024-02-14T09:26:50Z</time>
      </trkpt>
      <trkpt lat="48.94993" lon="2.12303">
        <ele>25.07</ele>
        <time>2024-02-14T09:27:03Z</time>
      </trkpt>
      <trkpt lat="48.94974" lon="2.12305">
        <ele>24.94</ele>
        <time>2024-02-14T09:27:17Z</time>
      </trkpt>
      <trkpt lat="48.94971" lon="2.12307">
        <ele>24.89</ele>
        <time>2024-02-14T09:27:19Z</time>
      </trkpt>
      <trkpt lat="48.94967" lon="2.12308">
        <ele>25.01</ele>
        <time>2024-02-14T09:27:22Z</time>
      </trkpt>
      <trkpt lat="48.94956" lon="2.12309">
        <ele>24.73</ele>
        <time>2024-02-14T09:27:29Z</time>
      </trkpt>
      <trkpt lat="48.9494" lon="2.12304">
        <ele>24.44</ele>
        <time>2024-02-14T09:27:41Z</time>
      </trkpt>
      <trkpt lat="48.94919" lon="2.12306">
        <ele>24.57</ele>
        <time>2024-02-14T09:27:56Z</time>
      </trkpt>
      <trkpt lat="48.94899" lon="2.12301">
        <ele>24.52</ele>
        <time>2024-02-14T09:28:10Z</time>
      </trkpt>
      <trkpt lat="48.9488" lon="2.12298">
        <ele>24.32</ele>
        <time>2024-02-14T09:28:25Z</time>
      </trkpt>
      <trkpt lat="48.94857" lon="2.12306">
        <ele>24.82</ele>
        <time>2024-02-14T09:28:38Z</time>
      </trkpt>
      <trkpt lat="48.9485" lon="2.12308">
        <ele>24.67</ele>
        <time>2024-02-14T09:28:43Z</time>
      </trkpt>
      <trkpt lat="48.94844" lon="2.12307">
        <ele>24.9</ele>
        <time>2024-02-14T09:28:47Z</time>
      </trkpt>
      <trkpt lat="48.94827" lon="2.12304">
        <ele>24.69</ele>
        <time>2024-02-14T09:28:59Z</time>
      </trkpt>
      <trkpt lat="48.94824" lon="2.12305">
        <ele>23.96</ele>
        <time>2024-02-14T09:29:01Z</time>
      </trkpt>
      <trkpt lat="48.94809" lon="2.12304">
        <ele>24.46</ele>
        <time>2024-02-14T09:29:11Z</time>
      </trkpt>
      <trkpt lat="48.94794" lon="2.12304">
        <ele>24.69</ele>
        <time>2024-02-14T09:29:22Z</time>
      </trkpt>
      <trkpt lat="48.94771" lon="2.12307">
        <ele>24.56</ele>
        <time>2024-02-14T09:29:39Z</time>
      </trkpt>
      <trkpt lat="48.94759" lon="2.12304">
        <ele>24.27</ele>
        <time>2024-02-14T09:29:47Z</time>
      </trkpt>
      <trkpt lat="48.94743" lon="2.12306">
        <ele>24.83</ele>
        <time>2024-02-14T09:29:57Z</time>
      </trkpt>
      <trkpt lat="48.94728" lon="2.12311">
        <ele>25.04</ele>
        <time>2024-02-14T09:30:08Z</time>
      </trkpt>
      <trkpt lat="48.94723" lon="2.12312">
        <ele>24.8</ele>
        <time>2024-02-14T09:30:11Z</time>
      </trkpt>
      <trkpt lat="48.94705" lon="2.12314">
        <ele>24.85</ele>
        <time>2024-02-14T09:30:22Z</time>
      </trkpt>
      <trkpt lat="48.94689" lon="2.12313">
        <ele>24.75</ele>
        <time>2024-02-14T09:30:33Z</time>
      </trkpt>
      <trkpt lat="48.9468" lon="2.12311">
        <ele>24.75</ele>
        <time>2024-02-14T09:30:39Z</time>
      </trkpt>
      <trkpt lat="48.94675" lon="2.12313">
        <ele>24.37</ele>
        <time>2024-02-14T09:30:42Z</time>
      </trkpt>
      <trkpt lat="48.94667" lon="2.12314">
        <ele>24.78</ele>
        <time>2024-02-14T09:30:47Z</time>
      </trkpt>
      <trkpt lat="48.94661" lon="2.12313">
        <ele>24.71</ele>
        <time>2024-02-14T09:30:51Z</time>
      </trkpt>
      <trkpt lat="48.94652" lon="2.12315">
        <ele>24.5</ele>
        <time>2024-02-14T09:30:58Z</time>
      </trkpt>
      <trkpt lat="48.94649" lon="2.12316">
        <ele>24.69</ele>
        <time>2024-02-14T09:31:00Z</time>
      </trkpt>
      <trkpt lat="48.94647" lon="2.12316">
        <ele>24.08</ele>
        <time>2024-02-14T09:31:02Z</time>
      </trkpt>
      <trkpt lat="48.9464" lon="2.12318">
        <ele>25.13</ele>
        <time>2024-02-14T09:31:09Z</time>
      </trkpt>
      <trkpt lat="48.94637" lon="2.12314">
        <ele>24.19</ele>
        <time>2024-02-14T09:31:22Z</time>
      </trkpt>
      <trkpt lat="48.94631" lon="2.12321">
        <ele>24.04</ele>
        <time>2024-02-14T09:31:43Z</time>
      </trkpt>
      <trkpt lat="48.94626" lon="2.12329">
        <ele>24.03</ele>
        <time>2024-02-14T09:32:03Z</time>
      </trkpt>
      <trkpt lat="48.94627" lon="2.12325">
        <ele>23.7</ele>
        <time>2024-02-14T09:32:07Z</time>
      </trkpt>
      <trkpt lat="48.94627" lon="2.12322">
        <ele>23.53</ele>
        <time>2024-02-14T09:32:10Z</time>
      </trkpt>
      <trkpt lat="48.94628" lon="2.12304">
        <ele>24.44</ele>
        <time>2024-02-14T09:32:21Z</time>
      </trkpt>
      <trkpt lat="48.94629" lon="2.12292">
        <ele>24.82</ele>
        <time>2024-02-14T09:32:27Z</time>
      </trkpt>
      <trkpt lat="48.9463" lon="2.12276">
        <ele>25.08</ele>
        <time>2024-02-14T09:32:33Z</time>
      </trkpt>
      <trkpt lat="48.94632" lon="2.12268">
        <ele>25.07</ele>
        <time>2024-02-14T09:32:38Z</time>
      </trkpt>
      <trkpt lat="48.94635" lon="2.12251">
        <ele>25.16</ele>
        <time>2024-02-14T09:32:46Z</time>
      </trkpt>
      <trkpt lat="48.94639" lon="2.12227">
        <ele>25.7</ele>
        <time>2024-02-14T09:32:56Z</time>
      </trkpt>
      <trkpt lat="48.94644" lon="2.12207">
        <ele>26.75</ele>
        <time>2024-02-14T09:33:06Z</time>
      </trkpt>
      <trkpt lat="48.9465" lon="2.12176">
        <ele>27.28</ele>
        <time>2024-02-14T09:33:20Z</time>
      </trkpt>
      <trkpt lat="48.94649" lon="2.1215">
        <ele>28.05</ele>
        <time>2024-02-14T09:33:31Z</time>
      </trkpt>
      <trkpt lat="48.94645" lon="2.12126">
        <ele>28.67</ele>
        <time>2024-02-14T09:33:43Z</time>
      </trkpt>
      <trkpt lat="48.94641" lon="2.12101">
        <ele>28.87</ele>
        <time>2024-02-14T09:33:54Z</time>
      </trkpt>
      <trkpt lat="48.94641" lon="2.1209">
        <ele>29.34</ele>
        <time>2024-02-14T09:33:59Z</time>
      </trkpt>
      <trkpt lat="48.94637" lon="2.12069">
        <ele>29.1</ele>
        <time>2024-02-14T09:34:09Z</time>
      </trkpt>
      <trkpt lat="48.94625" lon="2.12049">
        <ele>29.29</ele>
        <time>2024-02-14T09:34:23Z</time>
      </trkpt>
      <trkpt lat="48.94614" lon="2.12027">
        <ele>28.75</ele>
        <time>2024-02-14T09:34:36Z</time>
      </trkpt>
      <trkpt lat="48.94604" lon="2.12002">
        <ele>28.97</ele>
        <time>2024-02-14T09:34:48Z</time>
      </trkpt>
      <trkpt lat="48.94594" lon="2.11975">
        <ele>29.18</ele>
        <time>2024-02-14T09:35:01Z</time>
      </trkpt>
      <trkpt lat="48.94586" lon="2.11958">
        <ele>28.99</ele>
        <time>2024-02-14T09:35:14Z</time>
      </trkpt>
      <trkpt lat="48.94583" lon="2.11958">
        <ele>29.15</ele>
        <time>2024-02-14T09:35:35Z</time>
      </trkpt>
      <trkpt lat="48.94583" lon="2.11962">
        <ele>30.11</ele>
        <time>2024-02-14T09:35:58Z</time>
      </trkpt>
      <trkpt lat="48.94584" lon="2.11959">
        <ele>30.14</ele>
        <time>2024-02-14T09:36:23Z</time>
      </trkpt>
      <trkpt lat="48.94582" lon="2.11952">
        <ele>30.92</ele>
        <time>2024-02-14T09:36:43Z</time>
      </trkpt>
      <trkpt lat="48.94581" lon="2.11947">
        <ele>30.48</ele>
        <time>2024-02-14T09:37:02Z</time>
      </trkpt>
      <trkpt lat="48.94578" lon="2.11951">
        <ele>30.4</ele>
        <time>2024-02-14T09:37:22Z</time>
      </trkpt>
      <trkpt lat="48.94575" lon="2.11952">
        <ele>30.58</ele>
        <time>2024-02-14T09:37:44Z</time>
      </trkpt>
      <trkpt lat="48.94575" lon="2.11945">
        <ele>30.89</ele>
        <time>2024-02-14T09:38:04Z</time>
      </trkpt>
      <trkpt lat="48.94572" lon="2.11926">
        <ele>31.58</ele>
        <time>2024-02-14T09:38:19Z</time>
      </trkpt>
      <trkpt lat="48.94565" lon="2.11901">
        <ele>31.95</ele>
        <time>2024-02-14T09:38:35Z</time>
      </trkpt>
      <trkpt lat="48.94562" lon="2.11896">
        <ele>31.29</ele>
        <time>2024-02-14T09:38:48Z</time>
      </trkpt>
      <trkpt lat="48.9456" lon="2.11878">
        <ele>31.85</ele>
        <time>2024-02-14T09:39:01Z</time>
      </trkpt>
      <trkpt lat="48.9456" lon="2.11873">
        <ele>31.88</ele>
        <time>2024-02-14T09:39:04Z</time>
      </trkpt>
      <trkpt lat="48.94559" lon="2.11857">
        <ele>31.41</ele>
        <time>2024-02-14T09:39:14Z</time>
      </trkpt>
      <trkpt lat="48.9456" lon="2.11846">
        <ele>31.68</ele>
        <time>2024-02-14T09:39:21Z</time>
      </trkpt>
      <trkpt lat="48.94562" lon="2.1182">
        <ele>32.47</ele>
        <time>2024-02-14T09:39:32Z</time>
      </trkpt>
      <trkpt lat="48.94562" lon="2.11797">
        <ele>32.17</ele>
        <time>2024-02-14T09:39:43Z</time>
      </trkpt>
      <trkpt lat="48.94564" lon="2.11779">
        <ele>31.93</ele>
        <time>2024-02-14T09:39:50Z</time>
      </trkpt>
      <trkpt lat="48.94566" lon="2.11769">
        <ele>32.6</ele>
        <time>2024-02-14T09:40:00Z</time>
      </trkpt>
      <trkpt lat="48.94565" lon="2.11762">
        <ele>32.62</ele>
        <time>2024-02-14T09:40:13Z</time>
      </trkpt>
      <trkpt lat="48.94567" lon="2.11738">
        <ele>33.22</ele>
        <time>2024-02-14T09:40:26Z</time>
      </trkpt>
      <trkpt lat="48.94566" lon="2.11727">
        <ele>32.78</ele>
        <time>2024-02-14T09:40:33Z</time>
      </trkpt>
      <trkpt lat="48.94566" lon="2.11708">
        <ele>32.8</ele>
        <time>2024-02-14T09:40:42Z</time>
      </trkpt>
      <trkpt lat="48.94565" lon="2.11682">
        <ele>32.9</ele>
        <time>2024-02-14T09:40:52Z</time>
      </trkpt>
      <trkpt lat="48.94565" lon="2.11664">
        <ele>33.37</ele>
        <time>2024-02-14T09:41:00Z</time>
      </trkpt>
      <trkpt lat="48.94564" lon="2.1165">
        <ele>33.3</ele>
        <time>2024-02-14T09:41:07Z</time>
      </trkpt>
      <trkpt lat="48.94566" lon="2.11629">
        <ele>33.27</ele>
        <time>2024-02-14T09:41:17Z</time>
      </trkpt>
      <trkpt lat="48.94566" lon="2.11618">
        <ele>33.35</ele>
        <time>2024-02-14T09:41:22Z</time>
      </trkpt>
      <trkpt lat="48.94566" lon="2.11604">
        <ele>33.63</ele>
        <time>2024-02-14T09:41:28Z</time>
      </trkpt>
      <trkpt lat="48.94568" lon="2.11591">
        <ele>33.32</ele>
        <time>2024-02-14T09:41:34Z</time>
      </trkpt>
      <trkpt lat="48.94568" lon="2.11584">
        <ele>33.31</ele>
        <time>2024-02-14T09:41:37Z</time>
      </trkpt>
      <trkpt lat="48.9457" lon="2.11556">
        <ele>33.31</ele>
        <time>2024-02-14T09:41:50Z</time>
      </trkpt>
      <trkpt lat="48.94571" lon="2.11538">
        <ele>33.64</ele>
        <time>2024-02-14T09:41:59Z</time>
      </trkpt>
      <trkpt lat="48.94568" lon="2.11514">
        <ele>33.47</ele>
        <time>2024-02-14T09:42:10Z</time>
      </trkpt>
      <trkpt lat="48.94568" lon="2.11507">
        <ele>33.99</ele>
        <time>2024-02-14T09:42:13Z</time>
      </trkpt>
      <trkpt lat="48.94568" lon="2.11485">
        <ele>34.03</ele>
        <time>2024-02-14T09:42:22Z</time>
      </trkpt>
      <trkpt lat="48.9457" lon="2.11471">
        <ele>33.6</ele>
        <time>2024-02-14T09:42:29Z</time>
      </trkpt>
      <trkpt lat="48.9457" lon="2.11438">
        <ele>34.11</ele>
        <time>2024-02-14T09:42:43Z</time>
      </trkpt>
      <trkpt lat="48.9457" lon="2.11428">
        <ele>34.06</ele>
        <time>2024-02-14T09:42:48Z</time>
      </trkpt>
      <trkpt lat="48.94566" lon="2.11423">
        <ele>33.82</ele>
        <time>2024-02-14T09:42:58Z</time>
      </trkpt>
      <trkpt lat="48.94559" lon="2.11417">
        <ele>33.68</ele>
        <time>2024-02-14T09:43:03Z</time>
      </trkpt>
      <trkpt lat="48.94554" lon="2.11411">
        <ele>33.94</ele>
        <time>2024-02-14T09:43:09Z</time>
      </trkpt>
      <trkpt lat="48.94549" lon="2.11405">
        <ele>33.9</ele>
        <time>2024-02-14T09:43:14Z</time>
      </trkpt>
      <trkpt lat="48.94541" lon="2.11399">
        <ele>34.18</ele>
        <time>2024-02-14T09:43:21Z</time>
      </trkpt>
      <trkpt lat="48.94516" lon="2.11395">
        <ele>34.11</ele>
        <time>2024-02-14T09:43:36Z</time>
      </trkpt>
      <trkpt lat="48.94505" lon="2.1139">
        <ele>34.17</ele>
        <time>2024-02-14T09:43:43Z</time>
      </trkpt>
      <trkpt lat="48.945" lon="2.11387">
        <ele>33.6</ele>
        <time>2024-02-14T09:43:46Z</time>
      </trkpt>
      <trkpt lat="48.94486" lon="2.11388">
        <ele>34.38</ele>
        <time>2024-02-14T09:43:57Z</time>
      </trkpt>
      <trkpt lat="48.94479" lon="2.11388">
        <ele>34.83</ele>
        <time>2024-02-14T09:44:06Z</time>
      </trkpt>
      <trkpt lat="48.94467" lon="2.11406">
        <ele>34.2</ele>
        <time>2024-02-14T09:44:21Z</time>
      </trkpt>
      <trkpt lat="48.94454" lon="2.11418">
        <ele>34.71</ele>
        <time>2024-02-14T09:44:35Z</time>
      </trkpt>
      <trkpt lat="48.94439" lon="2.11443">
        <ele>34.37</ele>
        <time>2024-02-14T09:44:49Z</time>
      </trkpt>
      <trkpt lat="48.9443" lon="2.11455">
        <ele>34.35</ele>
        <time>2024-02-14T09:44:57Z</time>
      </trkpt>
      <trkpt lat="48.94419" lon="2.11477">
        <ele>34.74</ele>
        <time>2024-02-14T09:45:09Z</time>
      </trkpt>
      <trkpt lat="48.94403" lon="2.11507">
        <ele>35</ele>
        <time>2024-02-14T09:45:27Z</time>
      </trkpt>
      <trkpt lat="48.94395" lon="2.11533">
        <ele>35.21</ele>
        <time>2024-02-14T09:45:41Z</time>
      </trkpt>
      <trkpt lat="48.94385" lon="2.11542">
        <ele>34.32</ele>
        <time>2024-02-14T09:45:53Z</time>
      </trkpt>
      <trkpt lat="48.94376" lon="2.11528">
        <ele>34.41</ele>
        <time>2024-02-14T09:46:07Z</time>
      </trkpt>
      <trkpt lat="48.94377" lon="2.11525">
        <ele>34.65</ele>
        <time>2024-02-14T09:46:11Z</time>
      </trkpt>
      <trkpt lat="48.94375" lon="2.11516">
        <ele>35.01</ele>
        <time>2024-02-14T09:46:15Z</time>
      </trkpt>
      <trkpt lat="48.94376" lon="2.11479">
        <ele>35.01</ele>
        <time>2024-02-14T09:46:31Z</time>
      </trkpt>
      <trkpt lat="48.9438" lon="2.11444">
        <ele>35.21</ele>
        <time>2024-02-14T09:46:49Z</time>
      </trkpt>
      <trkpt lat="48.94379" lon="2.11424">
        <ele>34.84</ele>
        <time>2024-02-14T09:46:59Z</time>
      </trkpt>
      <trkpt lat="48.9438" lon="2.11394">
        <ele>35.13</ele>
        <time>2024-02-14T09:47:10Z</time>
      </trkpt>
      <trkpt lat="48.9438" lon="2.11366">
        <ele>35.18</ele>
        <time>2024-02-14T09:47:24Z</time>
      </trkpt>
      <trkpt lat="48.9438" lon="2.11349">
        <ele>35.43</ele>
        <time>2024-02-14T09:47:34Z</time>
      </trkpt>
      <trkpt lat="48.9438" lon="2.11343">
        <ele>35.4</ele>
        <time>2024-02-14T09:47:36Z</time>
      </trkpt>
      <trkpt lat="48.94379" lon="2.11319">
        <ele>35.65</ele>
        <time>2024-02-14T09:47:49Z</time>
      </trkpt>
      <trkpt lat="48.9438" lon="2.11309">
        <ele>36.01</ele>
        <time>2024-02-14T09:47:53Z</time>
      </trkpt>
      <trkpt lat="48.94382" lon="2.11278">
        <ele>35.54</ele>
        <time>2024-02-14T09:48:05Z</time>
      </trkpt>
      <trkpt lat="48.94382" lon="2.11244">
        <ele>36.26</ele>
        <time>2024-02-14T09:48:18Z</time>
      </trkpt>
      <trkpt lat="48.94383" lon="2.11242">
        <ele>36.09</ele>
        <time>2024-02-14T09:48:20Z</time>
      </trkpt>
      <trkpt lat="48.94385" lon="2.11237">
        <ele>36.12</ele>
        <time>2024-02-14T09:48:22Z</time>
      </trkpt>
      <trkpt lat="48.94384" lon="2.11217">
        <ele>36.18</ele>
        <time>2024-02-14T09:48:32Z</time>
      </trkpt>
      <trkpt lat="48.94386" lon="2.11201">
        <ele>36.33</ele>
        <time>2024-02-14T09:48:38Z</time>
      </trkpt>
      <trkpt lat="48.94386" lon="2.11193">
        <ele>36.29</ele>
        <time>2024-02-14T09:48:42Z</time>
      </trkpt>
      <trkpt lat="48.94385" lon="2.11173">
        <ele>36.59</ele>
        <time>2024-02-14T09:48:53Z</time>
      </trkpt>
      <trkpt lat="48.94385" lon="2.1114">
        <ele>36.61</ele>
        <time>2024-02-14T09:49:09Z</time>
      </trkpt>
      <trkpt lat="48.94388" lon="2.11108">
        <ele>36.74</ele>
        <time>2024-02-14T09:49:23Z</time>
      </trkpt>
      <trkpt lat="48.94387" lon="2.11089">
        <ele>37.34</ele>
        <time>2024-02-14T09:49:32Z</time>
      </trkpt>
      <trkpt lat="48.94388" lon="2.11072">
        <ele>37.51</ele>
        <time>2024-02-14T09:49:42Z</time>
      </trkpt>
      <trkpt lat="48.94382" lon="2.11047">
        <ele>37.05</ele>
        <time>2024-02-14T09:49:57Z</time>
      </trkpt>
      <trkpt lat="48.94381" lon="2.11043">
        <ele>37.46</ele>
        <time>2024-02-14T09:49:59Z</time>
      </trkpt>
      <trkpt lat="48.94383" lon="2.11033">
        <ele>37.35</ele>
        <time>2024-02-14T09:50:17Z</time>
      </trkpt>
      <trkpt lat="48.9438" lon="2.11033">
        <ele>36.89</ele>
        <time>2024-02-14T09:50:34Z</time>
      </trkpt>
      <trkpt lat="48.94383" lon="2.11034">
        <ele>36.96</ele>
        <time>2024-02-14T09:50:53Z</time>
      </trkpt>
      <trkpt lat="48.94381" lon="2.11033">
        <ele>37.67</ele>
        <time>2024-02-14T09:51:11Z</time>
      </trkpt>
      <trkpt lat="48.9438" lon="2.11031">
        <ele>37.66</ele>
        <time>2024-02-14T09:51:14Z</time>
      </trkpt>
      <trkpt lat="48.9438" lon="2.11014">
        <ele>37.34</ele>
        <time>2024-02-14T09:51:25Z</time>
      </trkpt>
      <trkpt lat="48.94384" lon="2.10991">
        <ele>38.23</ele>
        <time>2024-02-14T09:51:38Z</time>
      </trkpt>
      <trkpt lat="48.9439" lon="2.1096">
        <ele>38.16</ele>
        <time>2024-02-14T09:51:49Z</time>
      </trkpt>
      <trkpt lat="48.94392" lon="2.10945">
        <ele>37.5</ele>
        <time>2024-02-14T09:51:57Z</time>
      </trkpt>
      <trkpt lat="48.94398" lon="2.10922">
        <ele>37.95</ele>
        <time>2024-02-14T09:52:06Z</time>
      </trkpt>
      <trkpt lat="48.94399" lon="2.1092">
        <ele>38.35</ele>
        <time>2024-02-14T09:52:07Z</time>
      </trkpt>
      <trkpt lat="48.94404" lon="2.10899">
        <ele>38.15</ele>
        <time>2024-02-14T09:52:15Z</time>
      </trkpt>
      <trkpt lat="48.94407" lon="2.10878">
        <ele>38.74</ele>
        <time>2024-02-14T09:52:24Z</time>
      </trkpt>
      <trkpt lat="48.9441" lon="2.10857">
        <ele>38.18</ele>
        <time>2024-02-14T09:52:32Z</time>
      </trkpt>
      <trkpt lat="48.94419" lon="2.10855">
        <ele>37.82</ele>
        <time>2024-02-14T09:52:43Z</time>
      </trkpt>
      <trkpt lat="48.94426" lon="2.10857">
        <ele>37.86</ele>
        <time>2024-02-14T09:52:49Z</time>
      </trkpt>
      <trkpt lat="48.94452" lon="2.1087">
        <ele>37.76</ele>
        <time>2024-02-14T09:53:08Z</time>
      </trkpt>
      <trkpt lat="48.94454" lon="2.10871">
        <ele>36.4</ele>
        <time>2024-02-14T09:53:10Z</time>
      </trkpt>
      <trkpt lat="48.94458" lon="2.10873">
        <ele>36.18</ele>
        <time>2024-02-14T09:53:14Z</time>
      </trkpt>
      <trkpt lat="48.94469" lon="2.10878">
        <ele>36.16</ele>
        <time>2024-02-14T09:53:26Z</time>
      </trkpt>
      <trkpt lat="48.94485" lon="2.10885">
        <ele>35.65</ele>
        <time>2024-02-14T09:53:40Z</time>
      </trkpt>
      <trkpt lat="48.94508" lon="2.10894">
        <ele>35.02</ele>
        <time>2024-02-14T09:53:56Z</time>
      </trkpt>
      <trkpt lat="48.94525" lon="2.10898">
        <ele>34.77</ele>
        <time>2024-02-14T09:54:08Z</time>
      </trkpt>
      <trkpt lat="48.94552" lon="2.10905">
        <ele>34.06</ele>
        <time>2024-02-14T09:54:25Z</time>
      </trkpt>
      <trkpt lat="48.94566" lon="2.10912">
        <ele>33.98</ele>
        <time>2024-02-14T09:54:34Z</time>
      </trkpt>
      <trkpt lat="48.94596" lon="2.10918">
        <ele>33.11</ele>
        <time>2024-02-14T09:54:51Z</time>
      </trkpt>
      <trkpt lat="48.94615" lon="2.10925">
        <ele>32.88</ele>
        <time>2024-02-14T09:55:05Z</time>
      </trkpt>
      <trkpt lat="48.9464" lon="2.10939">
        <ele>32.1</ele>
        <time>2024-02-14T09:55:21Z</time>
      </trkpt>
      <trkpt lat="48.94652" lon="2.10943">
        <ele>31.88</ele>
        <time>2024-02-14T09:55:30Z</time>
      </trkpt>
      <trkpt lat="48.94663" lon="2.10947">
        <ele>32</ele>
        <time>2024-02-14T09:55:39Z</time>
      </trkpt>
      <trkpt lat="48.94674" lon="2.10949">
        <ele>31.94</ele>
        <time>2024-02-14T09:55:48Z</time>
      </trkpt>
      <trkpt lat="48.94677" lon="2.1095">
        <ele>31.42</ele>
        <time>2024-02-14T09:55:50Z</time>
      </trkpt>
      <trkpt lat="48.94683" lon="2.10951">
        <ele>31.6</ele>
        <time>2024-02-14T09:55:53Z</time>
      </trkpt>
      <trkpt lat="48.94697" lon="2.10955">
        <ele>31.76</ele>
        <time>2024-02-14T09:56:02Z</time>
      </trkpt>
      <trkpt lat="48.94715" lon="2.10959">
        <ele>32.48</ele>
        <time>2024-02-14T09:56:13Z</time>
      </trkpt>
      <trkpt lat="48.94731" lon="2.10964">
        <ele>31.53</ele>
        <time>2024-02-14T09:56:28Z</time>
      </trkpt>
      <trkpt lat="48.94737" lon="2.10966">
        <ele>31.56</ele>
        <time>2024-02-14T09:56:39Z</time>
      </trkpt>
      <trkpt lat="48.9474" lon="2.10966">
        <ele>31.14</ele>
        <time>2024-02-14T09:56:59Z</time>
      </trkpt>
      <trkpt lat="48.9474" lon="2.10962">
        <ele>31.49</ele>
        <time>2024-02-14T09:57:16Z</time>
      </trkpt>
      <trkpt lat="48.94748" lon="2.10966">
        <ele>30.81</ele>
        <time>2024-02-14T09:57:35Z</time>
      </trkpt>
      <trkpt lat="48.94765" lon="2.10973">
        <ele>31.22</ele>
        <time>2024-02-14T09:57:51Z</time>
      </trkpt>
      <trkpt lat="48.94786" lon="2.10982">
        <ele>31.39</ele>
        <time>2024-02-14T09:58:07Z</time>
      </trkpt>
      <trkpt lat="48.94804" lon="2.10987">
        <ele>31.08</ele>
        <time>2024-02-14T09:58:17Z</time>
      </trkpt>
      <trkpt lat="48.9482" lon="2.10988">
        <ele>30.41</ele>
        <time>2024-02-14T09:58:31Z</time>
      </trkpt>
      <trkpt lat="48.94839" lon="2.10998">
        <ele>30.67</ele>
        <time>2024-02-14T09:58:47Z</time>
      </trkpt>
      <trkpt lat="48.9485" lon="2.10993">
        <ele>30.94</ele>
        <time>2024-02-14T09:58:59Z</time>
      </trkpt>
      <trkpt lat="48.94859" lon="2.10975">
        <ele>30.88</ele>
        <time>2024-02-14T09:59:13Z</time>
      </trkpt>
      <trkpt lat="48.94863" lon="2.10957">
        <ele>30.61</ele>
        <time>2024-02-14T09:59:22Z</time>
      </trkpt>
      <trkpt lat="48.94864" lon="2.1094">
        <ele>30.94</ele>
        <time>2024-02-14T09:59:32Z</time>
      </trkpt>
      <trkpt lat="48.9486" lon="2.10909">
        <ele>30.88</ele>
        <time>2024-02-14T09:59:48Z</time>
      </trkpt>
      <trkpt lat="48.94859" lon="2.10884">
        <ele>31.87</ele>
        <time>2024-02-14T10:00:01Z</time>
      </trkpt>
      <trkpt lat="48.94853" lon="2.10848">
        <ele>31.78</ele>
        <time>2024-02-14T10:00:17Z</time>
      </trkpt>
      <trkpt lat="48.94852" lon="2.10816">
        <ele>31.94</ele>
        <time>2024-02-14T10:00:32Z</time>
      </trkpt>
      <trkpt lat="48.9485" lon="2.10783">
        <ele>32.38</ele>
        <time>2024-02-14T10:00:47Z</time>
      </trkpt>
      <trkpt lat="48.94847" lon="2.10749">
        <ele>32.55</ele>
        <time>2024-02-14T10:01:03Z</time>
      </trkpt>
      <trkpt lat="48.94843" lon="2.10716">
        <ele>32.79</ele>
        <time>2024-02-14T10:01:20Z</time>
      </trkpt>
      <trkpt lat="48.9484" lon="2.10685">
        <ele>32.25</ele>
        <time>2024-02-14T10:01:37Z</time>
      </trkpt>
      <trkpt lat="48.94835" lon="2.10649">
        <ele>32.24</ele>
        <time>2024-02-14T10:01:54Z</time>
      </trkpt>
      <trkpt lat="48.94834" lon="2.1062">
        <ele>32.3</ele>
        <time>2024-02-14T10:02:09Z</time>
      </trkpt>
      <trkpt lat="48.94832" lon="2.10591">
        <ele>32.49</ele>
        <time>2024-02-14T10:02:23Z</time>
      </trkpt>
      <trkpt lat="48.94836" lon="2.10583">
        <ele>32.53</ele>
        <time>2024-02-14T10:02:45Z</time>
      </trkpt>
      <trkpt lat="48.9483" lon="2.10578">
        <ele>32.86</ele>
        <time>2024-02-14T10:03:06Z</time>
      </trkpt>
      <trkpt lat="48.94817" lon="2.10569">
        <ele>33.5</ele>
        <time>2024-02-14T10:03:23Z</time>
      </trkpt>
      <trkpt lat="48.94805" lon="2.10564">
        <ele>33.63</ele>
        <time>2024-02-14T10:03:36Z</time>
      </trkpt>
      <trkpt lat="48.94786" lon="2.10558">
        <ele>34.4</ele>
        <time>2024-02-14T10:03:51Z</time>
      </trkpt>
      <trkpt lat="48.94768" lon="2.10554">
        <ele>34.46</ele>
        <time>2024-02-14T10:04:03Z</time>
      </trkpt>
      <trkpt lat="48.94748" lon="2.10547">
        <ele>35.01</ele>
        <time>2024-02-14T10:04:17Z</time>
      </trkpt>
      <trkpt lat="48.94727" lon="2.10541">
        <ele>35.13</ele>
        <time>2024-02-14T10:04:32Z</time>
      </trkpt>
      <trkpt lat="48.94713" lon="2.10533">
        <ele>35.8</ele>
        <time>2024-02-14T10:04:47Z</time>
      </trkpt>
      <trkpt lat="48.94699" lon="2.10526">
        <ele>35.75</ele>
        <time>2024-02-14T10:05:01Z</time>
      </trkpt>
      <trkpt lat="48.94681" lon="2.10515">
        <ele>35.95</ele>
        <time>2024-02-14T10:05:15Z</time>
      </trkpt>
      <trkpt lat="48.94659" lon="2.10511">
        <ele>36.31</ele>
        <time>2024-02-14T10:05:30Z</time>
      </trkpt>
      <trkpt lat="48.94639" lon="2.10509">
        <ele>36.14</ele>
        <time>2024-02-14T10:05:47Z</time>
      </trkpt>
      <trkpt lat="48.94632" lon="2.10505">
        <ele>36.3</ele>
        <time>2024-02-14T10:05:51Z</time>
      </trkpt>
      <trkpt lat="48.94617" lon="2.10502">
        <ele>36.57</ele>
        <time>2024-02-14T10:06:02Z</time>
      </trkpt>
      <trkpt lat="48.94595" lon="2.10497">
        <ele>36.82</ele>
        <time>2024-02-14T10:06:18Z</time>
      </trkpt>
      <trkpt lat="48.94573" lon="2.10492">
        <ele>37.2</ele>
        <time>2024-02-14T10:06:34Z</time>
      </trkpt>
      <trkpt lat="48.94566" lon="2.1049">
        <ele>37.61</ele>
        <time>2024-02-14T10:06:39Z</time>
      </trkpt>
      <trkpt lat="48.94542" lon="2.10481">
        <ele>37.92</ele>
        <time>2024-02-14T10:06:56Z</time>
      </trkpt>
      <trkpt lat="48.94528" lon="2.10471">
        <ele>37.74</ele>
        <time>2024-02-14T10:07:09Z</time>
      </trkpt>
      <trkpt lat="48.94512" lon="2.10463">
        <ele>37.94</ele>
        <time>2024-02-14T10:07:22Z</time>
      </trkpt>
      <trkpt lat="48.94507" lon="2.10462">
        <ele>37.8</ele>
        <time>2024-02-14T10:07:25Z</time>
      </trkpt>
      <trkpt lat="48.94491" lon="2.10462">
        <ele>37.58</ele>
        <time>2024-02-14T10:07:37Z</time>
      </trkpt>
      <trkpt lat="48.94472" lon="2.10445">
        <ele>37.39</ele>
        <time>2024-02-14T10:07:52Z</time>
      </trkpt>
      <trkpt lat="48.94469" lon="2.1044">
        <ele>38.02</ele>
        <time>2024-02-14T10:08:07Z</time>
      </trkpt>
      <trkpt lat="48.94466" lon="2.10444">
        <ele>38.8</ele>
        <time>2024-02-14T10:08:26Z</time>
      </trkpt>
      <trkpt lat="48.94463" lon="2.10442">
        <ele>38.32</ele>
        <time>2024-02-14T10:08:29Z</time>
      </trkpt>
      <trkpt lat="48.94459" lon="2.10436">
        <ele>38.96</ele>
        <time>2024-02-14T10:08:33Z</time>
      </trkpt>
      <trkpt lat="48.94445" lon="2.10417">
        <ele>37.96</ele>
        <time>2024-02-14T10:08:45Z</time>
      </trkpt>
      <trkpt lat="48.94439" lon="2.10408">
        <ele>37.87</ele>
        <time>2024-02-14T10:08:51Z</time>
      </trkpt>
      <trkpt lat="48.94438" lon="2.10405">
        <ele>38.08</ele>
        <time>2024-02-14T10:08:53Z</time>
      </trkpt>
      <trkpt lat="48.94428" lon="2.10383">
        <ele>38.89</ele>
        <time>2024-02-14T10:09:04Z</time>
      </trkpt>
      <trkpt lat="48.9442" lon="2.10366">
        <ele>38.81</ele>
        <time>2024-02-14T10:09:14Z</time>
      </trkpt>
      <trkpt lat="48.94407" lon="2.10354">
        <ele>39.3</ele>
        <time>2024-02-14T10:09:25Z</time>
      </trkpt>
      <trkpt lat="48.94404" lon="2.10347">
        <ele>39.39</ele>
        <time>2024-02-14T10:09:29Z</time>
      </trkpt>
      <trkpt lat="48.94397" lon="2.1034">
        <ele>39.37</ele>
        <time>2024-02-14T10:09:34Z</time>
      </trkpt>
      <trkpt lat="48.94393" lon="2.10334">
        <ele>39.07</ele>
        <time>2024-02-14T10:09:37Z</time>
      </trkpt>
      <trkpt lat="48.94387" lon="2.10328">
        <ele>39.06</ele>
        <time>2024-02-14T10:09:41Z</time>
      </trkpt>
      <trkpt lat="48.94385" lon="2.10325">
        <ele>39.13</ele>
        <time>2024-02-14T10:09:44Z</time>
      </trkpt>
      <trkpt lat="48.94373" lon="2.1031">
        <ele>39.43</ele>
        <time>2024-02-14T10:09:54Z</time>
      </trkpt>
      <trkpt lat="48.9437" lon="2.10307">
        <ele>39.07</ele>
        <time>2024-02-14T10:09:56Z</time>
      </trkpt>
      <trkpt lat="48.94369" lon="2.10303">
        <ele>39.96</ele>
        <time>2024-02-14T10:09:58Z</time>
      </trkpt>
      <trkpt lat="48.94359" lon="2.10294">
        <ele>39.48</ele>
        <time>2024-02-14T10:10:03Z</time>
      </trkpt>
      <trkpt lat="48.94347" lon="2.10278">
        <ele>38.93</ele>
        <time>2024-02-14T10:10:13Z</time>
      </trkpt>
      <trkpt lat="48.9434" lon="2.10268">
        <ele>39.53</ele>
        <time>2024-02-14T10:10:19Z</time>
      </trkpt>
      <trkpt lat="48.94329" lon="2.10244">
        <ele>39.71</ele>
        <time>2024-02-14T10:10:30Z</time>
      </trkpt>
      <trkpt lat="48.94314" lon="2.10226">
        <ele>39.38</ele>
        <time>2024-02-14T10:10:44Z</time>
      </trkpt>
      <trkpt lat="48.94309" lon="2.10218">
        <ele>39.37</ele>
        <time>2024-02-14T10:10:49Z</time>
      </trkpt>
      <trkpt lat="48.94306" lon="2.10214">
        <ele>39.16</ele>
        <time>2024-02-14T10:10:52Z</time>
      </trkpt>
      <trkpt lat="48.94294" lon="2.10194">
        <ele>39.3</ele>
        <time>2024-02-14T10:11:03Z</time>
      </trkpt>
      <trkpt lat="48.94288" lon="2.10185">
        <ele>39.47</ele>
        <time>2024-02-14T10:11:08Z</time>
      </trkpt>
      <trkpt lat="48.94278" lon="2.10168">
        <ele>39.34</ele>
        <time>2024-02-14T10:11:17Z</time>
      </trkpt>
      <trkpt lat="48.94268" lon="2.10152">
        <ele>39.58</ele>
        <time>2024-02-14T10:11:27Z</time>
      </trkpt>
      <trkpt lat="48.94262" lon="2.10143">
        <ele>39.5</ele>
        <time>2024-02-14T10:11:32Z</time>
      </trkpt>
      <trkpt lat="48.94251" lon="2.10127">
        <ele>39.72</ele>
        <time>2024-02-14T10:11:42Z</time>
      </trkpt>
      <trkpt lat="48.94238" lon="2.10101">
        <ele>38.87</ele>
        <time>2024-02-14T10:11:52Z</time>
      </trkpt>
      <trkpt lat="48.94228" lon="2.10083">
        <ele>38.82</ele>
        <time>2024-02-14T10:11:59Z</time>
      </trkpt>
      <trkpt lat="48.94216" lon="2.10069">
        <ele>38.62</ele>
        <time>2024-02-14T10:12:10Z</time>
      </trkpt>
      <trkpt lat="48.94212" lon="2.10064">
        <ele>38.76</ele>
        <time>2024-02-14T10:12:15Z</time>
      </trkpt>
      <trkpt lat="48.94206" lon="2.10045">
        <ele>38.37</ele>
        <time>2024-02-14T10:12:26Z</time>
      </trkpt>
      <trkpt lat="48.94202" lon="2.1004">
        <ele>38.92</ele>
        <time>2024-02-14T10:12:29Z</time>
      </trkpt>
      <trkpt lat="48.94194" lon="2.10029">
        <ele>39</ele>
        <time>2024-02-14T10:12:37Z</time>
      </trkpt>
      <trkpt lat="48.94185" lon="2.10014">
        <ele>38.87</ele>
        <time>2024-02-14T10:12:43Z</time>
      </trkpt>
      <trkpt lat="48.94179" lon="2.10007">
        <ele>38.52</ele>
        <time>2024-02-14T10:12:47Z</time>
      </trkpt>
      <trkpt lat="48.94172" lon="2.09998">
        <ele>39.03</ele>
        <time>2024-02-14T10:12:52Z</time>
      </trkpt>
      <trkpt lat="48.94163" lon="2.09982">
        <ele>39.19</ele>
        <time>2024-02-14T10:12:58Z</time>
      </trkpt>
      <trkpt lat="48.94157" lon="2.09972">
        <ele>38.75</ele>
        <time>2024-02-14T10:13:02Z</time>
      </trkpt>
      <trkpt lat="48.94144" lon="2.09955">
        <ele>39.06</ele>
        <time>2024-02-14T10:13:12Z</time>
      </trkpt>
      <trkpt lat="48.94139" lon="2.09944">
        <ele>38.9</ele>
        <time>2024-02-14T10:13:16Z</time>
      </trkpt>
      <trkpt lat="48.94128" lon="2.09927">
        <ele>39.26</ele>
        <time>2024-02-14T10:13:24Z</time>
      </trkpt>
      <trkpt lat="48.94118" lon="2.09912">
        <ele>38.9</ele>
        <time>2024-02-14T10:13:32Z</time>
      </trkpt>
      <trkpt lat="48.94112" lon="2.09902">
        <ele>39.33</ele>
        <time>2024-02-14T10:13:36Z</time>
      </trkpt>
      <trkpt lat="48.94098" lon="2.09886">
        <ele>39.48</ele>
        <time>2024-02-14T10:13:45Z</time>
      </trkpt>
      <trkpt lat="48.94091" lon="2.09877">
        <ele>39.64</ele>
        <time>2024-02-14T10:13:50Z</time>
      </trkpt>
      <trkpt lat="48.94083" lon="2.09866">
        <ele>39.74</ele>
        <time>2024-02-14T10:13:57Z</time>
      </trkpt>
      <trkpt lat="48.94077" lon="2.09856">
        <ele>39.45</ele>
        <time>2024-02-14T10:14:15Z</time>
      </trkpt>
      <trkpt lat="48.94076" lon="2.09856">
        <ele>39.26</ele>
        <time>2024-02-14T10:14:17Z</time>
      </trkpt>
      <trkpt lat="48.9407" lon="2.09845">
        <ele>39.15</ele>
        <time>2024-02-14T10:14:36Z</time>
      </trkpt>
      <trkpt lat="48.94067" lon="2.09837">
        <ele>39.82</ele>
        <time>2024-02-14T10:14:41Z</time>
      </trkpt>
      <trkpt lat="48.94062" lon="2.0983">
        <ele>39.56</ele>
        <time>2024-02-14T10:14:50Z</time>
      </trkpt>
      <trkpt lat="48.94056" lon="2.09818">
        <ele>39.4</ele>
        <time>2024-02-14T10:15:03Z</time>
      </trkpt>
      <trkpt lat="48.94047" lon="2.09801">
        <ele>39.8</ele>
        <time>2024-02-14T10:15:17Z</time>
      </trkpt>
      <trkpt lat="48.94037" lon="2.09788">
        <ele>39.4</ele>
        <time>2024-02-14T10:15:25Z</time>
      </trkpt>
      <trkpt lat="48.94033" lon="2.09786">
        <ele>39.24</ele>
        <time>2024-02-14T10:15:28Z</time>
      </trkpt>
      <trkpt lat="48.9403" lon="2.09778">
        <ele>39.29</ele>
        <time>2024-02-14T10:15:32Z</time>
      </trkpt>
      <trkpt lat="48.94018" lon="2.09761">
        <ele>39.52</ele>
        <time>2024-02-14T10:15:45Z</time>
      </trkpt>
      <trkpt lat="48.94013" lon="2.09747">
        <ele>40.16</ele>
        <time>2024-02-14T10:16:00Z</time>
      </trkpt>
      <trkpt lat="48.94012" lon="2.09747">
        <ele>40.86</ele>
        <time>2024-02-14T10:18:43Z</time>
      </trkpt>
      <trkpt lat="48.94009" lon="2.09746">
        <ele>40.95</ele>
        <time>2024-02-14T10:19:06Z</time>
      </trkpt>
      <trkpt lat="48.94013" lon="2.09742">
        <ele>41.53</ele>
        <time>2024-02-14T10:19:48Z</time>
      </trkpt>
      <trkpt lat="48.94008" lon="2.09732">
        <ele>47.11</ele>
        <time>2024-02-14T10:29:07Z</time>
      </trkpt>
      <trkpt lat="48.94003" lon="2.09729">
        <ele>47.07</ele>
        <time>2024-02-14T10:29:25Z</time>
      </trkpt>
      <trkpt lat="48.94003" lon="2.09728">
        <ele>47.91</ele>
        <time>2024-02-14T10:29:37Z</time>
      </trkpt>
      <trkpt lat="48.93999" lon="2.09725">
        <ele>47.47</ele>
        <time>2024-02-14T10:29:53Z</time>
      </trkpt>
      <trkpt lat="48.93999" lon="2.09726">
        <ele>47.79</ele>
        <time>2024-02-14T10:30:16Z</time>
      </trkpt>
      <trkpt lat="48.93997" lon="2.09721">
        <ele>48.39</ele>
        <time>2024-02-14T10:30:32Z</time>
      </trkpt>
      <trkpt lat="48.93997" lon="2.09713">
        <ele>48.33</ele>
        <time>2024-02-14T10:30:50Z</time>
      </trkpt>
      <trkpt lat="48.94005" lon="2.09704">
        <ele>48.52</ele>
        <time>2024-02-14T10:31:04Z</time>
      </trkpt>
      <trkpt lat="48.94012" lon="2.09698">
        <ele>50.34</ele>
        <time>2024-02-14T10:33:27Z</time>
      </trkpt>
      <trkpt lat="48.94012" lon="2.09692">
        <ele>50.67</ele>
        <time>2024-02-14T10:33:42Z</time>
      </trkpt>
      <trkpt lat="48.94012" lon="2.09691">
        <ele>50.84</ele>
        <time>2024-02-14T10:34:01Z</time>
      </trkpt>
    </trkseg>
  </trk>
</gpx>